<?xml version="1.0" encoding="UTF-8" standalone="no" ?>
<gpx xmlns="http://www.topografix.com/GPX/1/1" xmlns:xsi="http://www.w3.org/2001/XMLSchema-instance" xsi:schemaLocation="http://www.topografix.com/GPX/1/1 http://www.topografix.com/GPX/1/1/gpx.xsd" version="1.1" creator="VisuGPX - https://www.visugpx.com">
  <metadata>
    <name>Projet 3 novembre - Cime du rachas</name>
    <desc><![CDATA[Projet 3 novembre - le Gros Têt / Cime du Rachas,  la limite avec les Hautes-Alpes, depuis Besse]]></desc>
  </metadata>
  <wpt lat="45.07868" lon="6.18049">
    <ele>1567</ele>
    <name><![CDATA[]]></name>
    <type><![CDATA[Generic]]></type>
  </wpt>
  <trk>
    <name><![CDATA[Projet 3 novembre - Cime du rachas_1]]></name>
    <trkseg>
      <trkpt lat="45.07868" lon="6.18049">
        <ele>1567</ele>
        <time>2017-11-02T22:33:25Z</time>
      </trkpt>
      <trkpt lat="45.0786" lon="6.18038">
        <ele>1567</ele>
        <time>2017-11-02T22:33:34Z</time>
      </trkpt>
      <trkpt lat="45.07854" lon="6.1802">
        <ele>1566</ele>
        <time>2017-11-02T22:33:47Z</time>
      </trkpt>
      <trkpt lat="45.07848" lon="6.18005">
        <ele>1565</ele>
        <time>2017-11-02T22:34:01Z</time>
      </trkpt>
      <trkpt lat="45.07842" lon="6.1801">
        <ele>1564</ele>
        <time>2017-11-02T22:34:04Z</time>
      </trkpt>
      <trkpt lat="45.07861" lon="6.18091">
        <ele>1573</ele>
        <time>2017-11-02T22:34:09Z</time>
      </trkpt>
      <trkpt lat="45.07876" lon="6.18123">
        <ele>1575</ele>
        <time>2017-11-02T22:34:28Z</time>
      </trkpt>
      <trkpt lat="45.07888" lon="6.18138">
        <ele>1575</ele>
        <time>2017-11-02T22:34:45Z</time>
      </trkpt>
      <trkpt lat="45.07888" lon="6.18141">
        <ele>1575</ele>
        <time>2017-11-02T22:34:59Z</time>
      </trkpt>
      <trkpt lat="45.07886" lon="6.18145">
        <ele>1575</ele>
        <time>2017-11-02T22:35:09Z</time>
      </trkpt>
      <trkpt lat="45.07899" lon="6.18159">
        <ele>1575</ele>
        <time>2017-11-02T22:35:24Z</time>
      </trkpt>
      <trkpt lat="45.07922" lon="6.18186">
        <ele>1580</ele>
        <time>2017-11-02T22:35:33Z</time>
      </trkpt>
      <trkpt lat="45.0793" lon="6.18214">
        <ele>1585</ele>
        <time>2017-11-02T22:35:45Z</time>
      </trkpt>
      <trkpt lat="45.07954" lon="6.1828">
        <ele>1592</ele>
        <time>2017-11-02T22:35:54Z</time>
      </trkpt>
      <trkpt lat="45.07954" lon="6.18322">
        <ele>1595</ele>
        <time>2017-11-02T22:36:14Z</time>
      </trkpt>
      <trkpt lat="45.07956" lon="6.18328">
        <ele>1595</ele>
        <time>2017-11-02T22:36:27Z</time>
      </trkpt>
      <trkpt lat="45.07963" lon="6.18336">
        <ele>1604</ele>
        <time>2017-11-02T22:36:31Z</time>
      </trkpt>
      <trkpt lat="45.07971" lon="6.18345">
        <ele>1602</ele>
        <time>2017-11-02T22:36:36Z</time>
      </trkpt>
      <trkpt lat="45.07974" lon="6.18348">
        <ele>1601</ele>
        <time>2017-11-02T22:36:47Z</time>
      </trkpt>
      <trkpt lat="45.07972" lon="6.18352">
        <ele>1603</ele>
        <time>2017-11-02T22:37:04Z</time>
      </trkpt>
      <trkpt lat="45.07959" lon="6.18347">
        <ele>1606</ele>
        <time>2017-11-02T22:37:16Z</time>
      </trkpt>
      <trkpt lat="45.07954" lon="6.1835">
        <ele>1607</ele>
        <time>2017-11-02T22:37:23Z</time>
      </trkpt>
      <trkpt lat="45.07957" lon="6.18359">
        <ele>1607</ele>
        <time>2017-11-02T22:37:35Z</time>
      </trkpt>
      <trkpt lat="45.07956" lon="6.18362">
        <ele>1608</ele>
        <time>2017-11-02T22:37:53Z</time>
      </trkpt>
      <trkpt lat="45.07947" lon="6.1836">
        <ele>1609</ele>
        <time>2017-11-02T22:38:11Z</time>
      </trkpt>
      <trkpt lat="45.07942" lon="6.18354">
        <ele>1610</ele>
        <time>2017-11-02T22:38:31Z</time>
      </trkpt>
      <trkpt lat="45.0794" lon="6.18354">
        <ele>1610</ele>
        <time>2017-11-02T22:38:37Z</time>
      </trkpt>
      <trkpt lat="45.07938" lon="6.18357">
        <ele>1610</ele>
        <time>2017-11-02T22:38:40Z</time>
      </trkpt>
      <trkpt lat="45.07941" lon="6.18386">
        <ele>1615</ele>
        <time>2017-11-02T22:38:51Z</time>
      </trkpt>
      <trkpt lat="45.07947" lon="6.18406">
        <ele>1617</ele>
        <time>2017-11-02T22:39:00Z</time>
      </trkpt>
      <trkpt lat="45.07948" lon="6.18431">
        <ele>1632</ele>
        <time>2017-11-02T22:39:11Z</time>
      </trkpt>
      <trkpt lat="45.07956" lon="6.18467">
        <ele>1634</ele>
        <time>2017-11-02T22:39:20Z</time>
      </trkpt>
      <trkpt lat="45.07963" lon="6.18505">
        <ele>1647</ele>
        <time>2017-11-02T22:39:27Z</time>
      </trkpt>
      <trkpt lat="45.07966" lon="6.18545">
        <ele>1651</ele>
        <time>2017-11-02T22:39:31Z</time>
      </trkpt>
      <trkpt lat="45.07969" lon="6.1862">
        <ele>1664</ele>
        <time>2017-11-02T22:39:43Z</time>
      </trkpt>
      <trkpt lat="45.07963" lon="6.18703">
        <ele>1674</ele>
        <time>2017-11-02T22:40:00Z</time>
      </trkpt>
      <trkpt lat="45.0796" lon="6.1872">
        <ele>1675</ele>
        <time>2017-11-02T22:40:20Z</time>
      </trkpt>
      <trkpt lat="45.07957" lon="6.1875">
        <ele>1677</ele>
        <time>2017-11-02T22:40:29Z</time>
      </trkpt>
      <trkpt lat="45.07948" lon="6.18785">
        <ele>1681</ele>
        <time>2017-11-02T22:40:44Z</time>
      </trkpt>
      <trkpt lat="45.07949" lon="6.18801">
        <ele>1681</ele>
        <time>2017-11-02T22:41:02Z</time>
      </trkpt>
      <trkpt lat="45.07945" lon="6.1882">
        <ele>1684</ele>
        <time>2017-11-02T22:41:09Z</time>
      </trkpt>
      <trkpt lat="45.07944" lon="6.18844">
        <ele>1687</ele>
        <time>2017-11-02T22:41:15Z</time>
      </trkpt>
      <trkpt lat="45.07945" lon="6.1892">
        <ele>1693</ele>
        <time>2017-11-02T22:41:18Z</time>
      </trkpt>
      <trkpt lat="45.07941" lon="6.18961">
        <ele>1693</ele>
        <time>2017-11-02T22:41:27Z</time>
      </trkpt>
      <trkpt lat="45.07946" lon="6.18983">
        <ele>1694</ele>
        <time>2017-11-02T22:41:32Z</time>
      </trkpt>
      <trkpt lat="45.07941" lon="6.19009">
        <ele>1703</ele>
        <time>2017-11-02T22:41:36Z</time>
      </trkpt>
      <trkpt lat="45.07935" lon="6.19051">
        <ele>1704</ele>
        <time>2017-11-02T22:41:54Z</time>
      </trkpt>
      <trkpt lat="45.07936" lon="6.19068">
        <ele>1708</ele>
        <time>2017-11-02T22:42:07Z</time>
      </trkpt>
      <trkpt lat="45.07933" lon="6.19085">
        <ele>1715</ele>
        <time>2017-11-02T22:42:15Z</time>
      </trkpt>
      <trkpt lat="45.07928" lon="6.19129">
        <ele>1712</ele>
        <time>2017-11-02T22:42:22Z</time>
      </trkpt>
      <trkpt lat="45.07927" lon="6.19139">
        <ele>1714</ele>
        <time>2017-11-02T22:42:27Z</time>
      </trkpt>
      <trkpt lat="45.07924" lon="6.19142">
        <ele>1715</ele>
        <time>2017-11-02T22:42:46Z</time>
      </trkpt>
      <trkpt lat="45.07922" lon="6.19138">
        <ele>1715</ele>
        <time>2017-11-02T22:42:51Z</time>
      </trkpt>
      <trkpt lat="45.0792" lon="6.19149">
        <ele>1719</ele>
        <time>2017-11-02T22:42:57Z</time>
      </trkpt>
      <trkpt lat="45.07912" lon="6.19188">
        <ele>1753</ele>
        <time>2017-11-02T22:43:09Z</time>
      </trkpt>
      <trkpt lat="45.07909" lon="6.1922">
        <ele>1756</ele>
        <time>2017-11-02T22:43:13Z</time>
      </trkpt>
      <trkpt lat="45.07906" lon="6.19233">
        <ele>1753</ele>
        <time>2017-11-02T22:43:16Z</time>
      </trkpt>
      <trkpt lat="45.07906" lon="6.1925">
        <ele>1747</ele>
        <time>2017-11-02T22:43:32Z</time>
      </trkpt>
      <trkpt lat="45.07904" lon="6.19325">
        <ele>1761</ele>
        <time>2017-11-02T22:43:43Z</time>
      </trkpt>
      <trkpt lat="45.079" lon="6.1935">
        <ele>1770</ele>
        <time>2017-11-02T22:43:45Z</time>
      </trkpt>
      <trkpt lat="45.07898" lon="6.1941">
        <ele>1772</ele>
        <time>2017-11-02T22:43:54Z</time>
      </trkpt>
      <trkpt lat="45.07896" lon="6.19439">
        <ele>1781</ele>
        <time>2017-11-02T22:44:13Z</time>
      </trkpt>
      <trkpt lat="45.07892" lon="6.19435">
        <ele>1782</ele>
        <time>2017-11-02T22:44:30Z</time>
      </trkpt>
      <trkpt lat="45.07892" lon="6.19439">
        <ele>1783</ele>
        <time>2017-11-02T22:44:34Z</time>
      </trkpt>
      <trkpt lat="45.07892" lon="6.19479">
        <ele>1785</ele>
        <time>2017-11-02T22:44:47Z</time>
      </trkpt>
      <trkpt lat="45.07887" lon="6.19513">
        <ele>1793</ele>
        <time>2017-11-02T22:44:50Z</time>
      </trkpt>
      <trkpt lat="45.0788" lon="6.19528">
        <ele>1798</ele>
        <time>2017-11-02T22:45:10Z</time>
      </trkpt>
      <trkpt lat="45.07879" lon="6.19541">
        <ele>1799</ele>
        <time>2017-11-02T22:45:18Z</time>
      </trkpt>
      <trkpt lat="45.07886" lon="6.19551">
        <ele>1797</ele>
        <time>2017-11-02T22:45:20Z</time>
      </trkpt>
      <trkpt lat="45.0789" lon="6.19583">
        <ele>1795</ele>
        <time>2017-11-02T22:45:35Z</time>
      </trkpt>
      <trkpt lat="45.07892" lon="6.19595">
        <ele>1804</ele>
        <time>2017-11-02T22:45:43Z</time>
      </trkpt>
      <trkpt lat="45.0789" lon="6.19599">
        <ele>1806</ele>
        <time>2017-11-02T22:45:55Z</time>
      </trkpt>
      <trkpt lat="45.07883" lon="6.19593">
        <ele>1809</ele>
        <time>2017-11-02T22:46:03Z</time>
      </trkpt>
      <trkpt lat="45.07885" lon="6.19611">
        <ele>1810</ele>
        <time>2017-11-02T22:46:20Z</time>
      </trkpt>
      <trkpt lat="45.07887" lon="6.19627">
        <ele>1812</ele>
        <time>2017-11-02T22:46:37Z</time>
      </trkpt>
      <trkpt lat="45.07883" lon="6.19624">
        <ele>1813</ele>
        <time>2017-11-02T22:46:47Z</time>
      </trkpt>
      <trkpt lat="45.07878" lon="6.19618">
        <ele>1814</ele>
        <time>2017-11-02T22:46:59Z</time>
      </trkpt>
      <trkpt lat="45.07874" lon="6.19618">
        <ele>1815</ele>
        <time>2017-11-02T22:47:09Z</time>
      </trkpt>
      <trkpt lat="45.07866" lon="6.19616">
        <ele>1817</ele>
        <time>2017-11-02T22:47:21Z</time>
      </trkpt>
      <trkpt lat="45.07858" lon="6.196">
        <ele>1819</ele>
        <time>2017-11-02T22:47:34Z</time>
      </trkpt>
      <trkpt lat="45.07855" lon="6.19595">
        <ele>1821</ele>
        <time>2017-11-02T22:47:44Z</time>
      </trkpt>
      <trkpt lat="45.07853" lon="6.19597">
        <ele>1821</ele>
        <time>2017-11-02T22:47:48Z</time>
      </trkpt>
      <trkpt lat="45.07854" lon="6.1961">
        <ele>1821</ele>
        <time>2017-11-02T22:47:54Z</time>
      </trkpt>
      <trkpt lat="45.07851" lon="6.19615">
        <ele>1821</ele>
        <time>2017-11-02T22:47:57Z</time>
      </trkpt>
      <trkpt lat="45.07845" lon="6.19602">
        <ele>1823</ele>
        <time>2017-11-02T22:48:16Z</time>
      </trkpt>
      <trkpt lat="45.07839" lon="6.19584">
        <ele>1829</ele>
        <time>2017-11-02T22:48:32Z</time>
      </trkpt>
      <trkpt lat="45.07837" lon="6.19583">
        <ele>1829</ele>
        <time>2017-11-02T22:48:51Z</time>
      </trkpt>
      <trkpt lat="45.07835" lon="6.19586">
        <ele>1831</ele>
        <time>2017-11-02T22:49:05Z</time>
      </trkpt>
      <trkpt lat="45.07829" lon="6.19582">
        <ele>1837</ele>
        <time>2017-11-02T22:49:24Z</time>
      </trkpt>
      <trkpt lat="45.07827" lon="6.19574">
        <ele>1842</ele>
        <time>2017-11-02T22:49:32Z</time>
      </trkpt>
      <trkpt lat="45.07823" lon="6.19564">
        <ele>1847</ele>
        <time>2017-11-02T22:49:44Z</time>
      </trkpt>
      <trkpt lat="45.07818" lon="6.19559">
        <ele>1850</ele>
        <time>2017-11-02T22:49:49Z</time>
      </trkpt>
      <trkpt lat="45.07808" lon="6.19548">
        <ele>1853</ele>
        <time>2017-11-02T22:50:09Z</time>
      </trkpt>
      <trkpt lat="45.07806" lon="6.19543">
        <ele>1854</ele>
        <time>2017-11-02T22:50:19Z</time>
      </trkpt>
      <trkpt lat="45.07805" lon="6.19515">
        <ele>1851</ele>
        <time>2017-11-02T22:50:31Z</time>
      </trkpt>
      <trkpt lat="45.07803" lon="6.1951">
        <ele>1852</ele>
        <time>2017-11-02T22:50:41Z</time>
      </trkpt>
      <trkpt lat="45.07801" lon="6.19511">
        <ele>1853</ele>
        <time>2017-11-02T22:50:50Z</time>
      </trkpt>
      <trkpt lat="45.07796" lon="6.19524">
        <ele>1856</ele>
        <time>2017-11-02T22:50:59Z</time>
      </trkpt>
      <trkpt lat="45.07793" lon="6.19532">
        <ele>1858</ele>
        <time>2017-11-02T22:51:11Z</time>
      </trkpt>
      <trkpt lat="45.0779" lon="6.19534">
        <ele>1859</ele>
        <time>2017-11-02T22:51:23Z</time>
      </trkpt>
      <trkpt lat="45.07788" lon="6.1953">
        <ele>1860</ele>
        <time>2017-11-02T22:51:25Z</time>
      </trkpt>
      <trkpt lat="45.07789" lon="6.19522">
        <ele>1859</ele>
        <time>2017-11-02T22:51:33Z</time>
      </trkpt>
      <trkpt lat="45.07784" lon="6.19489">
        <ele>1857</ele>
        <time>2017-11-02T22:51:52Z</time>
      </trkpt>
      <trkpt lat="45.07781" lon="6.19471">
        <ele>1857</ele>
        <time>2017-11-02T22:52:08Z</time>
      </trkpt>
      <trkpt lat="45.07777" lon="6.19481">
        <ele>1860</ele>
        <time>2017-11-02T22:52:15Z</time>
      </trkpt>
      <trkpt lat="45.07774" lon="6.19508">
        <ele>1866</ele>
        <time>2017-11-02T22:52:19Z</time>
      </trkpt>
      <trkpt lat="45.07772" lon="6.19511">
        <ele>1867</ele>
        <time>2017-11-02T22:52:36Z</time>
      </trkpt>
      <trkpt lat="45.07771" lon="6.19508">
        <ele>1868</ele>
        <time>2017-11-02T22:52:45Z</time>
      </trkpt>
      <trkpt lat="45.07768" lon="6.19495">
        <ele>1867</ele>
        <time>2017-11-02T22:52:59Z</time>
      </trkpt>
      <trkpt lat="45.07765" lon="6.19507">
        <ele>1871</ele>
        <time>2017-11-02T22:53:11Z</time>
      </trkpt>
      <trkpt lat="45.07764" lon="6.19512">
        <ele>1871</ele>
        <time>2017-11-02T22:53:20Z</time>
      </trkpt>
      <trkpt lat="45.07763" lon="6.1951">
        <ele>1872</ele>
        <time>2017-11-02T22:53:35Z</time>
      </trkpt>
      <trkpt lat="45.0776" lon="6.19487">
        <ele>1869</ele>
        <time>2017-11-02T22:53:39Z</time>
      </trkpt>
      <trkpt lat="45.07755" lon="6.19504">
        <ele>1878</ele>
        <time>2017-11-02T22:53:51Z</time>
      </trkpt>
      <trkpt lat="45.07754" lon="6.19508">
        <ele>1877</ele>
        <time>2017-11-02T22:54:02Z</time>
      </trkpt>
      <trkpt lat="45.07751" lon="6.19506">
        <ele>1879</ele>
        <time>2017-11-02T22:54:15Z</time>
      </trkpt>
      <trkpt lat="45.07749" lon="6.1948">
        <ele>1887</ele>
        <time>2017-11-02T22:54:26Z</time>
      </trkpt>
      <trkpt lat="45.07743" lon="6.19468">
        <ele>1888</ele>
        <time>2017-11-02T22:54:31Z</time>
      </trkpt>
      <trkpt lat="45.07739" lon="6.19475">
        <ele>1888</ele>
        <time>2017-11-02T22:54:38Z</time>
      </trkpt>
      <trkpt lat="45.07734" lon="6.19494">
        <ele>1888</ele>
        <time>2017-11-02T22:54:50Z</time>
      </trkpt>
      <trkpt lat="45.0773" lon="6.19488">
        <ele>1888</ele>
        <time>2017-11-02T22:54:54Z</time>
      </trkpt>
      <trkpt lat="45.07725" lon="6.19495">
        <ele>1889</ele>
        <time>2017-11-02T22:55:09Z</time>
      </trkpt>
      <trkpt lat="45.07703" lon="6.19506">
        <ele>1898</ele>
        <time>2017-11-02T22:55:13Z</time>
      </trkpt>
      <trkpt lat="45.07691" lon="6.19517">
        <ele>1900</ele>
        <time>2017-11-02T22:55:33Z</time>
      </trkpt>
      <trkpt lat="45.07677" lon="6.19536">
        <ele>1902</ele>
        <time>2017-11-02T22:55:47Z</time>
      </trkpt>
      <trkpt lat="45.07654" lon="6.1956">
        <ele>1915</ele>
        <time>2017-11-02T22:56:04Z</time>
      </trkpt>
      <trkpt lat="45.07651" lon="6.19561">
        <ele>1916</ele>
        <time>2017-11-02T22:56:09Z</time>
      </trkpt>
      <trkpt lat="45.07646" lon="6.19557">
        <ele>1915</ele>
        <time>2017-11-02T22:56:24Z</time>
      </trkpt>
      <trkpt lat="45.07642" lon="6.19557">
        <ele>1915</ele>
        <time>2017-11-02T22:56:38Z</time>
      </trkpt>
      <trkpt lat="45.07637" lon="6.19562">
        <ele>1916</ele>
        <time>2017-11-02T22:56:53Z</time>
      </trkpt>
      <trkpt lat="45.07636" lon="6.19576">
        <ele>1917</ele>
        <time>2017-11-02T22:57:13Z</time>
      </trkpt>
      <trkpt lat="45.07634" lon="6.1958">
        <ele>1917</ele>
        <time>2017-11-02T22:57:22Z</time>
      </trkpt>
      <trkpt lat="45.07626" lon="6.19579">
        <ele>1918</ele>
        <time>2017-11-02T22:57:30Z</time>
      </trkpt>
      <trkpt lat="45.07621" lon="6.19587">
        <ele>1935</ele>
        <time>2017-11-02T22:57:32Z</time>
      </trkpt>
      <trkpt lat="45.07618" lon="6.19588">
        <ele>1935</ele>
        <time>2017-11-02T22:57:42Z</time>
      </trkpt>
      <trkpt lat="45.07614" lon="6.19593">
        <ele>1936</ele>
        <time>2017-11-02T22:57:46Z</time>
      </trkpt>
      <trkpt lat="45.07616" lon="6.19598">
        <ele>1936</ele>
        <time>2017-11-02T22:57:50Z</time>
      </trkpt>
      <trkpt lat="45.0762" lon="6.19601">
        <ele>1936</ele>
        <time>2017-11-02T22:58:02Z</time>
      </trkpt>
      <trkpt lat="45.07623" lon="6.19608">
        <ele>1937</ele>
        <time>2017-11-02T22:58:15Z</time>
      </trkpt>
      <trkpt lat="45.07621" lon="6.19618">
        <ele>1938</ele>
        <time>2017-11-02T22:58:17Z</time>
      </trkpt>
      <trkpt lat="45.07624" lon="6.19626">
        <ele>1939</ele>
        <time>2017-11-02T22:58:26Z</time>
      </trkpt>
      <trkpt lat="45.07629" lon="6.19631">
        <ele>1940</ele>
        <time>2017-11-02T22:58:34Z</time>
      </trkpt>
      <trkpt lat="45.07634" lon="6.19642">
        <ele>1941</ele>
        <time>2017-11-02T22:58:46Z</time>
      </trkpt>
      <trkpt lat="45.07633" lon="6.19648">
        <ele>1941</ele>
        <time>2017-11-02T22:58:50Z</time>
      </trkpt>
      <trkpt lat="45.07629" lon="6.19652">
        <ele>1942</ele>
        <time>2017-11-02T22:59:01Z</time>
      </trkpt>
      <trkpt lat="45.07638" lon="6.19658">
        <ele>1942</ele>
        <time>2017-11-02T22:59:05Z</time>
      </trkpt>
      <trkpt lat="45.07646" lon="6.19684">
        <ele>1958</ele>
        <time>2017-11-02T22:59:17Z</time>
      </trkpt>
      <trkpt lat="45.07656" lon="6.19706">
        <ele>1963</ele>
        <time>2017-11-02T22:59:22Z</time>
      </trkpt>
      <trkpt lat="45.07661" lon="6.19721">
        <ele>1966</ele>
        <time>2017-11-02T22:59:33Z</time>
      </trkpt>
      <trkpt lat="45.07657" lon="6.19723">
        <ele>1966</ele>
        <time>2017-11-02T22:59:48Z</time>
      </trkpt>
      <trkpt lat="45.07655" lon="6.19725">
        <ele>1967</ele>
        <time>2017-11-02T23:00:04Z</time>
      </trkpt>
      <trkpt lat="45.07657" lon="6.19738">
        <ele>1968</ele>
        <time>2017-11-02T23:00:18Z</time>
      </trkpt>
      <trkpt lat="45.07638" lon="6.19733">
        <ele>1969</ele>
        <time>2017-11-02T23:00:24Z</time>
      </trkpt>
      <trkpt lat="45.07624" lon="6.19727">
        <ele>1970</ele>
        <time>2017-11-02T23:00:37Z</time>
      </trkpt>
      <trkpt lat="45.07617" lon="6.19728">
        <ele>1971</ele>
        <time>2017-11-02T23:00:46Z</time>
      </trkpt>
      <trkpt lat="45.07592" lon="6.19727">
        <ele>1976</ele>
        <time>2017-11-02T23:00:49Z</time>
      </trkpt>
      <trkpt lat="45.07575" lon="6.19724">
        <ele>1980</ele>
        <time>2017-11-02T23:00:56Z</time>
      </trkpt>
      <trkpt lat="45.07563" lon="6.1972">
        <ele>1979</ele>
        <time>2017-11-02T23:01:06Z</time>
      </trkpt>
      <trkpt lat="45.07554" lon="6.1972">
        <ele>1978</ele>
        <time>2017-11-02T23:01:12Z</time>
      </trkpt>
      <trkpt lat="45.07554" lon="6.19724">
        <ele>1979</ele>
        <time>2017-11-02T23:01:21Z</time>
      </trkpt>
      <trkpt lat="45.07558" lon="6.19729">
        <ele>1980</ele>
        <time>2017-11-02T23:01:40Z</time>
      </trkpt>
      <trkpt lat="45.07564" lon="6.19731">
        <ele>1981</ele>
        <time>2017-11-02T23:01:49Z</time>
      </trkpt>
      <trkpt lat="45.07565" lon="6.19734">
        <ele>1982</ele>
        <time>2017-11-02T23:01:55Z</time>
      </trkpt>
      <trkpt lat="45.07554" lon="6.19736">
        <ele>1981</ele>
        <time>2017-11-02T23:02:08Z</time>
      </trkpt>
      <trkpt lat="45.07549" lon="6.19737">
        <ele>1981</ele>
        <time>2017-11-02T23:02:24Z</time>
      </trkpt>
      <trkpt lat="45.07546" lon="6.1974">
        <ele>1981</ele>
        <time>2017-11-02T23:02:39Z</time>
      </trkpt>
      <trkpt lat="45.07532" lon="6.19747">
        <ele>1982</ele>
        <time>2017-11-02T23:02:43Z</time>
      </trkpt>
      <trkpt lat="45.07531" lon="6.19752">
        <ele>2002</ele>
        <time>2017-11-02T23:02:57Z</time>
      </trkpt>
      <trkpt lat="45.07534" lon="6.19755">
        <ele>2003</ele>
        <time>2017-11-02T23:03:01Z</time>
      </trkpt>
      <trkpt lat="45.07537" lon="6.19755">
        <ele>2003</ele>
        <time>2017-11-02T23:03:13Z</time>
      </trkpt>
      <trkpt lat="45.07537" lon="6.19758">
        <ele>2003</ele>
        <time>2017-11-02T23:03:18Z</time>
      </trkpt>
      <trkpt lat="45.07528" lon="6.19767">
        <ele>2004</ele>
        <time>2017-11-02T23:03:34Z</time>
      </trkpt>
      <trkpt lat="45.07524" lon="6.19769">
        <ele>2004</ele>
        <time>2017-11-02T23:03:40Z</time>
      </trkpt>
      <trkpt lat="45.07522" lon="6.19773">
        <ele>2004</ele>
        <time>2017-11-02T23:03:46Z</time>
      </trkpt>
      <trkpt lat="45.0753" lon="6.19777">
        <ele>2006</ele>
        <time>2017-11-02T23:03:53Z</time>
      </trkpt>
      <trkpt lat="45.0754" lon="6.19778">
        <ele>2006</ele>
        <time>2017-11-02T23:04:08Z</time>
      </trkpt>
      <trkpt lat="45.07539" lon="6.19782">
        <ele>2007</ele>
        <time>2017-11-02T23:04:17Z</time>
      </trkpt>
      <trkpt lat="45.07535" lon="6.19789">
        <ele>2008</ele>
        <time>2017-11-02T23:04:20Z</time>
      </trkpt>
      <trkpt lat="45.07545" lon="6.19801">
        <ele>2010</ele>
        <time>2017-11-02T23:04:22Z</time>
      </trkpt>
      <trkpt lat="45.07547" lon="6.1981">
        <ele>2012</ele>
        <time>2017-11-02T23:04:34Z</time>
      </trkpt>
      <trkpt lat="45.07541" lon="6.19817">
        <ele>2013</ele>
        <time>2017-11-02T23:04:49Z</time>
      </trkpt>
      <trkpt lat="45.07536" lon="6.19823">
        <ele>2014</ele>
        <time>2017-11-02T23:05:08Z</time>
      </trkpt>
      <trkpt lat="45.07537" lon="6.19828">
        <ele>2014</ele>
        <time>2017-11-02T23:05:22Z</time>
      </trkpt>
      <trkpt lat="45.0754" lon="6.19833">
        <ele>2015</ele>
        <time>2017-11-02T23:05:30Z</time>
      </trkpt>
      <trkpt lat="45.07541" lon="6.19848">
        <ele>2035</ele>
        <time>2017-11-02T23:05:36Z</time>
      </trkpt>
      <trkpt lat="45.07543" lon="6.19865">
        <ele>2038</ele>
        <time>2017-11-02T23:05:41Z</time>
      </trkpt>
      <trkpt lat="45.07548" lon="6.19869">
        <ele>2038</ele>
        <time>2017-11-02T23:06:01Z</time>
      </trkpt>
      <trkpt lat="45.07555" lon="6.19872">
        <ele>2039</ele>
        <time>2017-11-02T23:06:18Z</time>
      </trkpt>
      <trkpt lat="45.07556" lon="6.19878">
        <ele>2040</ele>
        <time>2017-11-02T23:06:38Z</time>
      </trkpt>
      <trkpt lat="45.07546" lon="6.19888">
        <ele>2042</ele>
        <time>2017-11-02T23:06:52Z</time>
      </trkpt>
      <trkpt lat="45.07543" lon="6.19888">
        <ele>2042</ele>
        <time>2017-11-02T23:07:00Z</time>
      </trkpt>
      <trkpt lat="45.07542" lon="6.19892">
        <ele>2043</ele>
        <time>2017-11-02T23:07:10Z</time>
      </trkpt>
      <trkpt lat="45.0755" lon="6.19904">
        <ele>2044</ele>
        <time>2017-11-02T23:07:29Z</time>
      </trkpt>
      <trkpt lat="45.07553" lon="6.19909">
        <ele>2045</ele>
        <time>2017-11-02T23:07:32Z</time>
      </trkpt>
      <trkpt lat="45.07552" lon="6.19913">
        <ele>2045</ele>
        <time>2017-11-02T23:07:48Z</time>
      </trkpt>
      <trkpt lat="45.07566" lon="6.19932">
        <ele>2063</ele>
        <time>2017-11-02T23:08:03Z</time>
      </trkpt>
      <trkpt lat="45.07574" lon="6.19955">
        <ele>2069</ele>
        <time>2017-11-02T23:08:20Z</time>
      </trkpt>
      <trkpt lat="45.07583" lon="6.19966">
        <ele>2072</ele>
        <time>2017-11-02T23:08:33Z</time>
      </trkpt>
      <trkpt lat="45.07594" lon="6.19978">
        <ele>2063</ele>
        <time>2017-11-02T23:08:38Z</time>
      </trkpt>
      <trkpt lat="45.07596" lon="6.19983">
        <ele>2064</ele>
        <time>2017-11-02T23:08:41Z</time>
      </trkpt>
      <trkpt lat="45.07601" lon="6.20002">
        <ele>2078</ele>
        <time>2017-11-02T23:08:54Z</time>
      </trkpt>
      <trkpt lat="45.07608" lon="6.20018">
        <ele>2077</ele>
        <time>2017-11-02T23:09:06Z</time>
      </trkpt>
      <trkpt lat="45.07616" lon="6.20032">
        <ele>2077</ele>
        <time>2017-11-02T23:09:15Z</time>
      </trkpt>
      <trkpt lat="45.07625" lon="6.20061">
        <ele>2078</ele>
        <time>2017-11-02T23:09:17Z</time>
      </trkpt>
      <trkpt lat="45.07639" lon="6.20092">
        <ele>2088</ele>
        <time>2017-11-02T23:09:32Z</time>
      </trkpt>
      <trkpt lat="45.07637" lon="6.20094">
        <ele>2090</ele>
        <time>2017-11-02T23:09:49Z</time>
      </trkpt>
      <trkpt lat="45.07629" lon="6.2009">
        <ele>2092</ele>
        <time>2017-11-02T23:10:09Z</time>
      </trkpt>
      <trkpt lat="45.07626" lon="6.20083">
        <ele>2079</ele>
        <time>2017-11-02T23:10:12Z</time>
      </trkpt>
      <trkpt lat="45.07622" lon="6.20081">
        <ele>2081</ele>
        <time>2017-11-02T23:10:14Z</time>
      </trkpt>
      <trkpt lat="45.07621" lon="6.20083">
        <ele>2081</ele>
        <time>2017-11-02T23:10:18Z</time>
      </trkpt>
      <trkpt lat="45.07625" lon="6.20099">
        <ele>2095</ele>
        <time>2017-11-02T23:10:34Z</time>
      </trkpt>
      <trkpt lat="45.07623" lon="6.20105">
        <ele>2096</ele>
        <time>2017-11-02T23:10:40Z</time>
      </trkpt>
      <trkpt lat="45.07612" lon="6.20097">
        <ele>2098</ele>
        <time>2017-11-02T23:10:49Z</time>
      </trkpt>
      <trkpt lat="45.07601" lon="6.20086">
        <ele>2101</ele>
        <time>2017-11-02T23:10:56Z</time>
      </trkpt>
      <trkpt lat="45.07602" lon="6.20094">
        <ele>2101</ele>
        <time>2017-11-02T23:11:13Z</time>
      </trkpt>
      <trkpt lat="45.07605" lon="6.20098">
        <ele>2100</ele>
        <time>2017-11-02T23:11:31Z</time>
      </trkpt>
      <trkpt lat="45.07606" lon="6.20108">
        <ele>2100</ele>
        <time>2017-11-02T23:11:47Z</time>
      </trkpt>
      <trkpt lat="45.07604" lon="6.20109">
        <ele>2101</ele>
        <time>2017-11-02T23:11:50Z</time>
      </trkpt>
      <trkpt lat="45.07596" lon="6.201">
        <ele>2102</ele>
        <time>2017-11-02T23:11:59Z</time>
      </trkpt>
      <trkpt lat="45.07587" lon="6.20087">
        <ele>2105</ele>
        <time>2017-11-02T23:12:05Z</time>
      </trkpt>
      <trkpt lat="45.07579" lon="6.2008">
        <ele>2106</ele>
        <time>2017-11-02T23:12:13Z</time>
      </trkpt>
      <trkpt lat="45.07571" lon="6.20074">
        <ele>2105</ele>
        <time>2017-11-02T23:12:16Z</time>
      </trkpt>
      <trkpt lat="45.07574" lon="6.20083">
        <ele>2106</ele>
        <time>2017-11-02T23:12:24Z</time>
      </trkpt>
      <trkpt lat="45.07572" lon="6.201">
        <ele>2120</ele>
        <time>2017-11-02T23:12:26Z</time>
      </trkpt>
      <trkpt lat="45.07567" lon="6.20096">
        <ele>2120</ele>
        <time>2017-11-02T23:12:32Z</time>
      </trkpt>
      <trkpt lat="45.07561" lon="6.20092">
        <ele>2121</ele>
        <time>2017-11-02T23:12:44Z</time>
      </trkpt>
      <trkpt lat="45.07554" lon="6.20094">
        <ele>2124</ele>
        <time>2017-11-02T23:12:49Z</time>
      </trkpt>
      <trkpt lat="45.07542" lon="6.20087">
        <ele>2126</ele>
        <time>2017-11-02T23:13:01Z</time>
      </trkpt>
      <trkpt lat="45.0752" lon="6.20082">
        <ele>2114</ele>
        <time>2017-11-02T23:13:10Z</time>
      </trkpt>
      <trkpt lat="45.07514" lon="6.2008">
        <ele>2117</ele>
        <time>2017-11-02T23:13:28Z</time>
      </trkpt>
      <trkpt lat="45.07515" lon="6.20091">
        <ele>2129</ele>
        <time>2017-11-02T23:13:46Z</time>
      </trkpt>
      <trkpt lat="45.07513" lon="6.20094">
        <ele>2129</ele>
        <time>2017-11-02T23:13:56Z</time>
      </trkpt>
      <trkpt lat="45.07509" lon="6.20094">
        <ele>2129</ele>
        <time>2017-11-02T23:14:14Z</time>
      </trkpt>
      <trkpt lat="45.07495" lon="6.2009">
        <ele>2134</ele>
        <time>2017-11-02T23:14:22Z</time>
      </trkpt>
      <trkpt lat="45.07481" lon="6.20096">
        <ele>2140</ele>
        <time>2017-11-02T23:14:42Z</time>
      </trkpt>
      <trkpt lat="45.07477" lon="6.20102">
        <ele>2142</ele>
        <time>2017-11-02T23:14:55Z</time>
      </trkpt>
      <trkpt lat="45.07476" lon="6.20107">
        <ele>2143</ele>
        <time>2017-11-02T23:15:14Z</time>
      </trkpt>
      <trkpt lat="45.07481" lon="6.20115">
        <ele>2145</ele>
        <time>2017-11-02T23:15:21Z</time>
      </trkpt>
      <trkpt lat="45.07495" lon="6.20133">
        <ele>2148</ele>
        <time>2017-11-02T23:15:23Z</time>
      </trkpt>
      <trkpt lat="45.07502" lon="6.20146">
        <ele>2142</ele>
        <time>2017-11-02T23:15:41Z</time>
      </trkpt>
      <trkpt lat="45.07508" lon="6.20152">
        <ele>2144</ele>
        <time>2017-11-02T23:15:45Z</time>
      </trkpt>
      <trkpt lat="45.07516" lon="6.20158">
        <ele>2143</ele>
        <time>2017-11-02T23:15:55Z</time>
      </trkpt>
      <trkpt lat="45.07524" lon="6.20174">
        <ele>2157</ele>
        <time>2017-11-02T23:16:03Z</time>
      </trkpt>
      <trkpt lat="45.07536" lon="6.2019">
        <ele>2156</ele>
        <time>2017-11-02T23:16:20Z</time>
      </trkpt>
      <trkpt lat="45.07545" lon="6.20203">
        <ele>2157</ele>
        <time>2017-11-02T23:16:37Z</time>
      </trkpt>
      <trkpt lat="45.07554" lon="6.20224">
        <ele>2159</ele>
        <time>2017-11-02T23:16:56Z</time>
      </trkpt>
      <trkpt lat="45.07561" lon="6.20247">
        <ele>2160</ele>
        <time>2017-11-02T23:17:02Z</time>
      </trkpt>
      <trkpt lat="45.07554" lon="6.20246">
        <ele>2161</ele>
        <time>2017-11-02T23:17:20Z</time>
      </trkpt>
      <trkpt lat="45.07556" lon="6.20253">
        <ele>2176</ele>
        <time>2017-11-02T23:17:31Z</time>
      </trkpt>
      <trkpt lat="45.07567" lon="6.20262">
        <ele>2173</ele>
        <time>2017-11-02T23:17:44Z</time>
      </trkpt>
      <trkpt lat="45.07566" lon="6.20267">
        <ele>2175</ele>
        <time>2017-11-02T23:18:01Z</time>
      </trkpt>
      <trkpt lat="45.07554" lon="6.20265">
        <ele>2179</ele>
        <time>2017-11-02T23:18:04Z</time>
      </trkpt>
      <trkpt lat="45.07545" lon="6.20258">
        <ele>2181</ele>
        <time>2017-11-02T23:18:14Z</time>
      </trkpt>
      <trkpt lat="45.07518" lon="6.20246">
        <ele>2173</ele>
        <time>2017-11-02T23:18:25Z</time>
      </trkpt>
      <trkpt lat="45.07502" lon="6.20237">
        <ele>2177</ele>
        <time>2017-11-02T23:18:35Z</time>
      </trkpt>
      <trkpt lat="45.07482" lon="6.20231">
        <ele>2184</ele>
        <time>2017-11-02T23:18:53Z</time>
      </trkpt>
      <trkpt lat="45.0747" lon="6.20232">
        <ele>2185</ele>
        <time>2017-11-02T23:18:58Z</time>
      </trkpt>
      <trkpt lat="45.07464" lon="6.20228">
        <ele>2185</ele>
        <time>2017-11-02T23:19:03Z</time>
      </trkpt>
      <trkpt lat="45.07461" lon="6.20229">
        <ele>2185</ele>
        <time>2017-11-02T23:19:11Z</time>
      </trkpt>
      <trkpt lat="45.07464" lon="6.20236">
        <ele>2186</ele>
        <time>2017-11-02T23:19:31Z</time>
      </trkpt>
      <trkpt lat="45.07474" lon="6.20252">
        <ele>2203</ele>
        <time>2017-11-02T23:19:42Z</time>
      </trkpt>
      <trkpt lat="45.07457" lon="6.2025">
        <ele>2188</ele>
        <time>2017-11-02T23:19:49Z</time>
      </trkpt>
      <trkpt lat="45.07453" lon="6.20246">
        <ele>2189</ele>
        <time>2017-11-02T23:20:08Z</time>
      </trkpt>
      <trkpt lat="45.07445" lon="6.20248">
        <ele>2191</ele>
        <time>2017-11-02T23:20:22Z</time>
      </trkpt>
      <trkpt lat="45.07428" lon="6.20244">
        <ele>2197</ele>
        <time>2017-11-02T23:20:32Z</time>
      </trkpt>
      <trkpt lat="45.07406" lon="6.2025">
        <ele>2202</ele>
        <time>2017-11-02T23:20:46Z</time>
      </trkpt>
      <trkpt lat="45.07389" lon="6.20263">
        <ele>2216</ele>
        <time>2017-11-02T23:21:02Z</time>
      </trkpt>
      <trkpt lat="45.07373" lon="6.20283">
        <ele>2219</ele>
        <time>2017-11-02T23:21:19Z</time>
      </trkpt>
      <trkpt lat="45.0735" lon="6.20313">
        <ele>2224</ele>
        <time>2017-11-02T23:21:27Z</time>
      </trkpt>
      <trkpt lat="45.07339" lon="6.2034">
        <ele>2234</ele>
        <time>2017-11-02T23:21:46Z</time>
      </trkpt>
      <trkpt lat="45.07332" lon="6.20363">
        <ele>2235</ele>
        <time>2017-11-02T23:21:53Z</time>
      </trkpt>
      <trkpt lat="45.07332" lon="6.20388">
        <ele>2237</ele>
        <time>2017-11-02T23:21:56Z</time>
      </trkpt>
      <trkpt lat="45.07342" lon="6.20446">
        <ele>2247</ele>
        <time>2017-11-02T23:21:58Z</time>
      </trkpt>
      <trkpt lat="45.0735" lon="6.20477">
        <ele>2250</ele>
        <time>2017-11-02T23:22:13Z</time>
      </trkpt>
      <trkpt lat="45.07355" lon="6.20503">
        <ele>2252</ele>
        <time>2017-11-02T23:22:27Z</time>
      </trkpt>
      <trkpt lat="45.07361" lon="6.20523">
        <ele>2251</ele>
        <time>2017-11-02T23:22:34Z</time>
      </trkpt>
      <trkpt lat="45.07366" lon="6.20535">
        <ele>2250</ele>
        <time>2017-11-02T23:22:43Z</time>
      </trkpt>
      <trkpt lat="45.07375" lon="6.20545">
        <ele>2250</ele>
        <time>2017-11-02T23:22:50Z</time>
      </trkpt>
      <trkpt lat="45.074" lon="6.20572">
        <ele>2250</ele>
        <time>2017-11-02T23:23:08Z</time>
      </trkpt>
      <trkpt lat="45.07417" lon="6.20596">
        <ele>2252</ele>
        <time>2017-11-02T23:23:19Z</time>
      </trkpt>
      <trkpt lat="45.0742" lon="6.20604">
        <ele>2252</ele>
        <time>2017-11-02T23:23:24Z</time>
      </trkpt>
      <trkpt lat="45.07421" lon="6.20615">
        <ele>2252</ele>
        <time>2017-11-02T23:23:37Z</time>
      </trkpt>
      <trkpt lat="45.07418" lon="6.20656">
        <ele>2246</ele>
        <time>2017-11-02T23:23:56Z</time>
      </trkpt>
      <trkpt lat="45.07422" lon="6.20674">
        <ele>2244</ele>
        <time>2017-11-02T23:24:16Z</time>
      </trkpt>
      <trkpt lat="45.07421" lon="6.20678">
        <ele>2244</ele>
        <time>2017-11-02T23:24:25Z</time>
      </trkpt>
      <trkpt lat="45.07422" lon="6.20683">
        <ele>2245</ele>
        <time>2017-11-02T23:24:41Z</time>
      </trkpt>
      <trkpt lat="45.07433" lon="6.20715">
        <ele>2245</ele>
        <time>2017-11-02T23:24:56Z</time>
      </trkpt>
      <trkpt lat="45.07438" lon="6.20734">
        <ele>2244</ele>
        <time>2017-11-02T23:25:11Z</time>
      </trkpt>
      <trkpt lat="45.07445" lon="6.20783">
        <ele>2240</ele>
        <time>2017-11-02T23:25:14Z</time>
      </trkpt>
      <trkpt lat="45.07448" lon="6.20803">
        <ele>2239</ele>
        <time>2017-11-02T23:25:22Z</time>
      </trkpt>
      <trkpt lat="45.07454" lon="6.20817">
        <ele>2239</ele>
        <time>2017-11-02T23:25:27Z</time>
      </trkpt>
      <trkpt lat="45.0751" lon="6.2089">
        <ele>2238</ele>
        <time>2017-11-02T23:25:38Z</time>
      </trkpt>
      <trkpt lat="45.07543" lon="6.20928">
        <ele>2231</ele>
        <time>2017-11-02T23:25:45Z</time>
      </trkpt>
      <trkpt lat="45.07565" lon="6.20959">
        <ele>2232</ele>
        <time>2017-11-02T23:25:56Z</time>
      </trkpt>
      <trkpt lat="45.07568" lon="6.20972">
        <ele>2232</ele>
        <time>2017-11-02T23:26:07Z</time>
      </trkpt>
      <trkpt lat="45.07566" lon="6.20984">
        <ele>2231</ele>
        <time>2017-11-02T23:26:12Z</time>
      </trkpt>
      <trkpt lat="45.07561" lon="6.21005">
        <ele>2228</ele>
        <time>2017-11-02T23:26:21Z</time>
      </trkpt>
      <trkpt lat="45.07552" lon="6.21029">
        <ele>2226</ele>
        <time>2017-11-02T23:26:36Z</time>
      </trkpt>
      <trkpt lat="45.07548" lon="6.21042">
        <ele>2225</ele>
        <time>2017-11-02T23:26:51Z</time>
      </trkpt>
      <trkpt lat="45.07548" lon="6.21084">
        <ele>2222</ele>
        <time>2017-11-02T23:26:58Z</time>
      </trkpt>
      <trkpt lat="45.0754" lon="6.21125">
        <ele>2220</ele>
        <time>2017-11-02T23:27:17Z</time>
      </trkpt>
      <trkpt lat="45.07536" lon="6.21155">
        <ele>2219</ele>
        <time>2017-11-02T23:27:34Z</time>
      </trkpt>
      <trkpt lat="45.07545" lon="6.21184">
        <ele>2217</ele>
        <time>2017-11-02T23:27:41Z</time>
      </trkpt>
      <trkpt lat="45.07568" lon="6.21239">
        <ele>2217</ele>
        <time>2017-11-02T23:27:49Z</time>
      </trkpt>
      <trkpt lat="45.07588" lon="6.21275">
        <ele>2219</ele>
        <time>2017-11-02T23:27:56Z</time>
      </trkpt>
      <trkpt lat="45.07618" lon="6.21319">
        <ele>2218</ele>
        <time>2017-11-02T23:28:02Z</time>
      </trkpt>
      <trkpt lat="45.07628" lon="6.2134">
        <ele>2213</ele>
        <time>2017-11-02T23:28:19Z</time>
      </trkpt>
      <trkpt lat="45.07642" lon="6.21368">
        <ele>2213</ele>
        <time>2017-11-02T23:28:28Z</time>
      </trkpt>
      <trkpt lat="45.07654" lon="6.21385">
        <ele>2213</ele>
        <time>2017-11-02T23:28:35Z</time>
      </trkpt>
      <trkpt lat="45.07666" lon="6.21411">
        <ele>2213</ele>
        <time>2017-11-02T23:28:53Z</time>
      </trkpt>
      <trkpt lat="45.07679" lon="6.21427">
        <ele>2216</ele>
        <time>2017-11-02T23:29:12Z</time>
      </trkpt>
      <trkpt lat="45.07682" lon="6.21454">
        <ele>2217</ele>
        <time>2017-11-02T23:29:24Z</time>
      </trkpt>
      <trkpt lat="45.07693" lon="6.21479">
        <ele>2217</ele>
        <time>2017-11-02T23:29:38Z</time>
      </trkpt>
      <trkpt lat="45.07695" lon="6.21494">
        <ele>2216</ele>
        <time>2017-11-02T23:29:54Z</time>
      </trkpt>
      <trkpt lat="45.07704" lon="6.21516">
        <ele>2216</ele>
        <time>2017-11-02T23:30:13Z</time>
      </trkpt>
      <trkpt lat="45.0772" lon="6.21537">
        <ele>2217</ele>
        <time>2017-11-02T23:30:18Z</time>
      </trkpt>
      <trkpt lat="45.07727" lon="6.21568">
        <ele>2217</ele>
        <time>2017-11-02T23:30:21Z</time>
      </trkpt>
      <trkpt lat="45.0773" lon="6.21594">
        <ele>2216</ele>
        <time>2017-11-02T23:30:24Z</time>
      </trkpt>
      <trkpt lat="45.07736" lon="6.21606">
        <ele>2216</ele>
        <time>2017-11-02T23:30:33Z</time>
      </trkpt>
      <trkpt lat="45.07745" lon="6.2162">
        <ele>2216</ele>
        <time>2017-11-02T23:30:44Z</time>
      </trkpt>
      <trkpt lat="45.07751" lon="6.21633">
        <ele>2226</ele>
        <time>2017-11-02T23:30:51Z</time>
      </trkpt>
      <trkpt lat="45.07767" lon="6.21689">
        <ele>2223</ele>
        <time>2017-11-02T23:30:58Z</time>
      </trkpt>
      <trkpt lat="45.07779" lon="6.21716">
        <ele>2224</ele>
        <time>2017-11-02T23:31:02Z</time>
      </trkpt>
      <trkpt lat="45.0778" lon="6.21723">
        <ele>2224</ele>
        <time>2017-11-02T23:31:11Z</time>
      </trkpt>
      <trkpt lat="45.07779" lon="6.21732">
        <ele>2223</ele>
        <time>2017-11-02T23:31:24Z</time>
      </trkpt>
      <trkpt lat="45.07778" lon="6.2174">
        <ele>2223</ele>
        <time>2017-11-02T23:31:31Z</time>
      </trkpt>
      <trkpt lat="45.07788" lon="6.21763">
        <ele>2222</ele>
        <time>2017-11-02T23:31:42Z</time>
      </trkpt>
      <trkpt lat="45.07807" lon="6.21826">
        <ele>2224</ele>
        <time>2017-11-02T23:31:54Z</time>
      </trkpt>
      <trkpt lat="45.07814" lon="6.21871">
        <ele>2220</ele>
        <time>2017-11-02T23:32:12Z</time>
      </trkpt>
      <trkpt lat="45.07825" lon="6.21917">
        <ele>2218</ele>
        <time>2017-11-02T23:32:26Z</time>
      </trkpt>
      <trkpt lat="45.07837" lon="6.21953">
        <ele>2224</ele>
        <time>2017-11-02T23:32:46Z</time>
      </trkpt>
      <trkpt lat="45.07853" lon="6.22026">
        <ele>2219</ele>
        <time>2017-11-02T23:32:49Z</time>
      </trkpt>
      <trkpt lat="45.07877" lon="6.22105">
        <ele>2216</ele>
        <time>2017-11-02T23:33:07Z</time>
      </trkpt>
      <trkpt lat="45.07903" lon="6.22174">
        <ele>2218</ele>
        <time>2017-11-02T23:33:27Z</time>
      </trkpt>
      <trkpt lat="45.07936" lon="6.22246">
        <ele>2224</ele>
        <time>2017-11-02T23:33:30Z</time>
      </trkpt>
      <trkpt lat="45.07963" lon="6.22292">
        <ele>2224</ele>
        <time>2017-11-02T23:33:35Z</time>
      </trkpt>
      <trkpt lat="45.07976" lon="6.22316">
        <ele>2224</ele>
        <time>2017-11-02T23:33:51Z</time>
      </trkpt>
      <trkpt lat="45.07985" lon="6.22343">
        <ele>2224</ele>
        <time>2017-11-02T23:33:59Z</time>
      </trkpt>
      <trkpt lat="45.07994" lon="6.22367">
        <ele>2223</ele>
        <time>2017-11-02T23:34:18Z</time>
      </trkpt>
      <trkpt lat="45.08005" lon="6.22388">
        <ele>2230</ele>
        <time>2017-11-02T23:34:36Z</time>
      </trkpt>
      <trkpt lat="45.0804" lon="6.22449">
        <ele>2230</ele>
        <time>2017-11-02T23:34:53Z</time>
      </trkpt>
      <trkpt lat="45.08068" lon="6.22474">
        <ele>2230</ele>
        <time>2017-11-02T23:35:01Z</time>
      </trkpt>
      <trkpt lat="45.08122" lon="6.22538">
        <ele>2233</ele>
        <time>2017-11-02T23:35:04Z</time>
      </trkpt>
      <trkpt lat="45.08151" lon="6.22573">
        <ele>2232</ele>
        <time>2017-11-02T23:35:24Z</time>
      </trkpt>
      <trkpt lat="45.08181" lon="6.22607">
        <ele>2234</ele>
        <time>2017-11-02T23:35:43Z</time>
      </trkpt>
      <trkpt lat="45.08188" lon="6.22611">
        <ele>2235</ele>
        <time>2017-11-02T23:35:48Z</time>
      </trkpt>
      <trkpt lat="45.08201" lon="6.22613">
        <ele>2236</ele>
        <time>2017-11-02T23:35:52Z</time>
      </trkpt>
      <trkpt lat="45.08219" lon="6.22629">
        <ele>2236</ele>
        <time>2017-11-02T23:36:03Z</time>
      </trkpt>
      <trkpt lat="45.08262" lon="6.22656">
        <ele>2241</ele>
        <time>2017-11-02T23:36:11Z</time>
      </trkpt>
      <trkpt lat="45.08303" lon="6.22681">
        <ele>2242</ele>
        <time>2017-11-02T23:36:28Z</time>
      </trkpt>
      <trkpt lat="45.08335" lon="6.22711">
        <ele>2248</ele>
        <time>2017-11-02T23:36:32Z</time>
      </trkpt>
      <trkpt lat="45.08342" lon="6.22721">
        <ele>2248</ele>
        <time>2017-11-02T23:36:35Z</time>
      </trkpt>
      <trkpt lat="45.08356" lon="6.22732">
        <ele>2248</ele>
        <time>2017-11-02T23:36:37Z</time>
      </trkpt>
      <trkpt lat="45.0837" lon="6.22743">
        <ele>2249</ele>
        <time>2017-11-02T23:36:50Z</time>
      </trkpt>
      <trkpt lat="45.08383" lon="6.22758">
        <ele>2247</ele>
        <time>2017-11-02T23:37:04Z</time>
      </trkpt>
      <trkpt lat="45.08387" lon="6.22767">
        <ele>2247</ele>
        <time>2017-11-02T23:37:08Z</time>
      </trkpt>
      <trkpt lat="45.08394" lon="6.22796">
        <ele>2247</ele>
        <time>2017-11-02T23:37:14Z</time>
      </trkpt>
      <trkpt lat="45.08412" lon="6.22825">
        <ele>2247</ele>
        <time>2017-11-02T23:37:30Z</time>
      </trkpt>
      <trkpt lat="45.0845" lon="6.22889">
        <ele>2257</ele>
        <time>2017-11-02T23:37:50Z</time>
      </trkpt>
      <trkpt lat="45.08492" lon="6.2297">
        <ele>2258</ele>
        <time>2017-11-02T23:38:02Z</time>
      </trkpt>
      <trkpt lat="45.08526" lon="6.2305">
        <ele>2267</ele>
        <time>2017-11-02T23:38:13Z</time>
      </trkpt>
      <trkpt lat="45.0854" lon="6.2309">
        <ele>2264</ele>
        <time>2017-11-02T23:38:30Z</time>
      </trkpt>
      <trkpt lat="45.08561" lon="6.2313">
        <ele>2264</ele>
        <time>2017-11-02T23:38:41Z</time>
      </trkpt>
      <trkpt lat="45.08617" lon="6.23539">
        <ele>2347</ele>
        <time>2017-11-02T23:38:52Z</time>
      </trkpt>
      <trkpt lat="45.08532" lon="6.23667">
        <ele>2378</ele>
        <time>2017-11-02T23:38:54Z</time>
      </trkpt>
      <trkpt lat="45.08166" lon="6.23753">
        <ele>2450</ele>
        <time>2017-11-02T23:38:57Z</time>
      </trkpt>
      <trkpt lat="45.07839" lon="6.2383">
        <ele>2529</ele>
        <time>2017-11-02T23:39:12Z</time>
      </trkpt>
      <trkpt lat="45.07654" lon="6.23912">
        <ele>2557</ele>
        <time>2017-11-02T23:39:15Z</time>
      </trkpt>
      <trkpt lat="45.07451" lon="6.23972">
        <ele>2612</ele>
        <time>2017-11-02T23:39:31Z</time>
      </trkpt>
      <trkpt lat="45.07348" lon="6.24131">
        <ele>2590.8</ele>
        <time>2017-11-02T23:39:45Z</time>
      </trkpt>
      <trkpt lat="45.07305" lon="6.24264">
        <ele>2547</ele>
        <time>2017-11-02T23:39:52Z</time>
      </trkpt>
      <trkpt lat="45.07193" lon="6.24397">
        <ele>2513</ele>
        <time>2017-11-02T23:39:59Z</time>
      </trkpt>
      <trkpt lat="45.07051" lon="6.24427">
        <ele>2462</ele>
        <time>2017-11-02T23:40:04Z</time>
      </trkpt>
      <trkpt lat="45.06896" lon="6.24277">
        <ele>2396</ele>
        <time>2017-11-02T23:40:20Z</time>
      </trkpt>
      <trkpt lat="45.06729" lon="6.2386">
        <ele>2313</ele>
        <time>2017-11-02T23:40:25Z</time>
      </trkpt>
      <trkpt lat="45.06708" lon="6.23594">
        <ele>2280</ele>
        <time>2017-11-02T23:40:42Z</time>
      </trkpt>
      <trkpt lat="45.06668" lon="6.23266">
        <ele>2246</ele>
        <time>2017-11-02T23:40:47Z</time>
      </trkpt>
      <trkpt lat="45.06679" lon="6.23245">
        <ele>2244</ele>
        <time>2017-11-02T23:40:59Z</time>
      </trkpt>
      <trkpt lat="45.06691" lon="6.23203">
        <ele>2243</ele>
        <time>2017-11-02T23:41:05Z</time>
      </trkpt>
      <trkpt lat="45.06693" lon="6.23173">
        <ele>2243</ele>
        <time>2017-11-02T23:41:10Z</time>
      </trkpt>
      <trkpt lat="45.06692" lon="6.23135">
        <ele>2241</ele>
        <time>2017-11-02T23:41:27Z</time>
      </trkpt>
      <trkpt lat="45.06693" lon="6.2311">
        <ele>2241</ele>
        <time>2017-11-02T23:41:43Z</time>
      </trkpt>
      <trkpt lat="45.06697" lon="6.2308">
        <ele>2240</ele>
        <time>2017-11-02T23:41:54Z</time>
      </trkpt>
      <trkpt lat="45.06693" lon="6.23058">
        <ele>2239</ele>
        <time>2017-11-02T23:42:04Z</time>
      </trkpt>
      <trkpt lat="45.06692" lon="6.23025">
        <ele>2238</ele>
        <time>2017-11-02T23:42:16Z</time>
      </trkpt>
      <trkpt lat="45.06685" lon="6.22999">
        <ele>2235</ele>
        <time>2017-11-02T23:42:28Z</time>
      </trkpt>
      <trkpt lat="45.06674" lon="6.2298">
        <ele>2235</ele>
        <time>2017-11-02T23:42:39Z</time>
      </trkpt>
      <trkpt lat="45.06667" lon="6.22956">
        <ele>2233</ele>
        <time>2017-11-02T23:42:50Z</time>
      </trkpt>
      <trkpt lat="45.06666" lon="6.22931">
        <ele>2232</ele>
        <time>2017-11-02T23:42:55Z</time>
      </trkpt>
      <trkpt lat="45.06663" lon="6.22903">
        <ele>2229</ele>
        <time>2017-11-02T23:43:01Z</time>
      </trkpt>
      <trkpt lat="45.06654" lon="6.22872">
        <ele>2228</ele>
        <time>2017-11-02T23:43:13Z</time>
      </trkpt>
      <trkpt lat="45.06644" lon="6.22843">
        <ele>2227</ele>
        <time>2017-11-02T23:43:17Z</time>
      </trkpt>
      <trkpt lat="45.06643" lon="6.22823">
        <ele>2226</ele>
        <time>2017-11-02T23:43:23Z</time>
      </trkpt>
      <trkpt lat="45.06648" lon="6.22782">
        <ele>2226</ele>
        <time>2017-11-02T23:43:40Z</time>
      </trkpt>
      <trkpt lat="45.06645" lon="6.22749">
        <ele>2225</ele>
        <time>2017-11-02T23:43:52Z</time>
      </trkpt>
      <trkpt lat="45.06637" lon="6.22721">
        <ele>2225</ele>
        <time>2017-11-02T23:44:10Z</time>
      </trkpt>
      <trkpt lat="45.06627" lon="6.22695">
        <ele>2225</ele>
        <time>2017-11-02T23:44:17Z</time>
      </trkpt>
      <trkpt lat="45.06624" lon="6.22677">
        <ele>2225</ele>
        <time>2017-11-02T23:44:32Z</time>
      </trkpt>
      <trkpt lat="45.06623" lon="6.22643">
        <ele>2224</ele>
        <time>2017-11-02T23:44:44Z</time>
      </trkpt>
      <trkpt lat="45.06622" lon="6.22607">
        <ele>2224</ele>
        <time>2017-11-02T23:44:52Z</time>
      </trkpt>
      <trkpt lat="45.06626" lon="6.2256">
        <ele>2222</ele>
        <time>2017-11-02T23:45:08Z</time>
      </trkpt>
      <trkpt lat="45.06621" lon="6.22493">
        <ele>2220</ele>
        <time>2017-11-02T23:45:16Z</time>
      </trkpt>
      <trkpt lat="45.06622" lon="6.22466">
        <ele>2220</ele>
        <time>2017-11-02T23:45:20Z</time>
      </trkpt>
      <trkpt lat="45.06618" lon="6.22421">
        <ele>2219</ele>
        <time>2017-11-02T23:45:37Z</time>
      </trkpt>
      <trkpt lat="45.06614" lon="6.22397">
        <ele>2216</ele>
        <time>2017-11-02T23:45:52Z</time>
      </trkpt>
      <trkpt lat="45.06609" lon="6.22387">
        <ele>2216</ele>
        <time>2017-11-02T23:46:12Z</time>
      </trkpt>
      <trkpt lat="45.06597" lon="6.22355">
        <ele>2215</ele>
        <time>2017-11-02T23:46:20Z</time>
      </trkpt>
      <trkpt lat="45.06586" lon="6.22317">
        <ele>2212</ele>
        <time>2017-11-02T23:46:33Z</time>
      </trkpt>
      <trkpt lat="45.06578" lon="6.22301">
        <ele>2215</ele>
        <time>2017-11-02T23:46:42Z</time>
      </trkpt>
      <trkpt lat="45.06563" lon="6.22283">
        <ele>2215</ele>
        <time>2017-11-02T23:47:00Z</time>
      </trkpt>
      <trkpt lat="45.06541" lon="6.22231">
        <ele>2211</ele>
        <time>2017-11-02T23:47:17Z</time>
      </trkpt>
      <trkpt lat="45.06537" lon="6.2222">
        <ele>2211</ele>
        <time>2017-11-02T23:47:29Z</time>
      </trkpt>
      <trkpt lat="45.06538" lon="6.2221">
        <ele>2210</ele>
        <time>2017-11-02T23:47:43Z</time>
      </trkpt>
      <trkpt lat="45.06545" lon="6.22183">
        <ele>2209</ele>
        <time>2017-11-02T23:47:47Z</time>
      </trkpt>
      <trkpt lat="45.06552" lon="6.22154">
        <ele>2203</ele>
        <time>2017-11-02T23:47:56Z</time>
      </trkpt>
      <trkpt lat="45.06552" lon="6.2213">
        <ele>2202</ele>
        <time>2017-11-02T23:48:10Z</time>
      </trkpt>
      <trkpt lat="45.06548" lon="6.22103">
        <ele>2201</ele>
        <time>2017-11-02T23:48:16Z</time>
      </trkpt>
      <trkpt lat="45.06549" lon="6.22091">
        <ele>2201</ele>
        <time>2017-11-02T23:48:19Z</time>
      </trkpt>
      <trkpt lat="45.06559" lon="6.22045">
        <ele>2196</ele>
        <time>2017-11-02T23:48:38Z</time>
      </trkpt>
      <trkpt lat="45.06568" lon="6.22024">
        <ele>2195</ele>
        <time>2017-11-02T23:48:55Z</time>
      </trkpt>
      <trkpt lat="45.06578" lon="6.22">
        <ele>2194</ele>
        <time>2017-11-02T23:49:06Z</time>
      </trkpt>
      <trkpt lat="45.06577" lon="6.21976">
        <ele>2194</ele>
        <time>2017-11-02T23:49:20Z</time>
      </trkpt>
      <trkpt lat="45.06572" lon="6.21955">
        <ele>2194</ele>
        <time>2017-11-02T23:49:26Z</time>
      </trkpt>
      <trkpt lat="45.06572" lon="6.21932">
        <ele>2195</ele>
        <time>2017-11-02T23:49:37Z</time>
      </trkpt>
      <trkpt lat="45.06583" lon="6.2183">
        <ele>2203</ele>
        <time>2017-11-02T23:49:41Z</time>
      </trkpt>
      <trkpt lat="45.06587" lon="6.21794">
        <ele>2203</ele>
        <time>2017-11-02T23:49:49Z</time>
      </trkpt>
      <trkpt lat="45.06589" lon="6.21786">
        <ele>2204</ele>
        <time>2017-11-02T23:50:00Z</time>
      </trkpt>
      <trkpt lat="45.06596" lon="6.21764">
        <ele>2204</ele>
        <time>2017-11-02T23:50:08Z</time>
      </trkpt>
      <trkpt lat="45.06621" lon="6.21724">
        <ele>2205</ele>
        <time>2017-11-02T23:50:10Z</time>
      </trkpt>
      <trkpt lat="45.06656" lon="6.21675">
        <ele>2205</ele>
        <time>2017-11-02T23:50:13Z</time>
      </trkpt>
      <trkpt lat="45.06681" lon="6.21635">
        <ele>2206</ele>
        <time>2017-11-02T23:50:19Z</time>
      </trkpt>
      <trkpt lat="45.06699" lon="6.21605">
        <ele>2206</ele>
        <time>2017-11-02T23:50:26Z</time>
      </trkpt>
      <trkpt lat="45.06707" lon="6.21583">
        <ele>2208</ele>
        <time>2017-11-02T23:50:37Z</time>
      </trkpt>
      <trkpt lat="45.06724" lon="6.2156">
        <ele>2209</ele>
        <time>2017-11-02T23:50:54Z</time>
      </trkpt>
      <trkpt lat="45.06735" lon="6.21546">
        <ele>2209</ele>
        <time>2017-11-02T23:51:14Z</time>
      </trkpt>
      <trkpt lat="45.06755" lon="6.21507">
        <ele>2210</ele>
        <time>2017-11-02T23:51:27Z</time>
      </trkpt>
      <trkpt lat="45.06774" lon="6.21471">
        <ele>2210</ele>
        <time>2017-11-02T23:51:47Z</time>
      </trkpt>
      <trkpt lat="45.06794" lon="6.21443">
        <ele>2210</ele>
        <time>2017-11-02T23:51:59Z</time>
      </trkpt>
      <trkpt lat="45.06804" lon="6.21424">
        <ele>2209</ele>
        <time>2017-11-02T23:52:17Z</time>
      </trkpt>
      <trkpt lat="45.0681" lon="6.21414">
        <ele>2211</ele>
        <time>2017-11-02T23:52:27Z</time>
      </trkpt>
      <trkpt lat="45.06828" lon="6.21397">
        <ele>2211</ele>
        <time>2017-11-02T23:52:34Z</time>
      </trkpt>
      <trkpt lat="45.0685" lon="6.21366">
        <ele>2205</ele>
        <time>2017-11-02T23:52:36Z</time>
      </trkpt>
      <trkpt lat="45.06853" lon="6.21356">
        <ele>2206</ele>
        <time>2017-11-02T23:52:55Z</time>
      </trkpt>
      <trkpt lat="45.06873" lon="6.21328">
        <ele>2207</ele>
        <time>2017-11-02T23:52:58Z</time>
      </trkpt>
      <trkpt lat="45.06883" lon="6.21302">
        <ele>2207</ele>
        <time>2017-11-02T23:53:16Z</time>
      </trkpt>
      <trkpt lat="45.06886" lon="6.21288">
        <ele>2207</ele>
        <time>2017-11-02T23:53:22Z</time>
      </trkpt>
      <trkpt lat="45.06899" lon="6.21242">
        <ele>2209</ele>
        <time>2017-11-02T23:53:37Z</time>
      </trkpt>
      <trkpt lat="45.06911" lon="6.21196">
        <ele>2210</ele>
        <time>2017-11-02T23:53:44Z</time>
      </trkpt>
      <trkpt lat="45.06934" lon="6.21139">
        <ele>2207</ele>
        <time>2017-11-02T23:53:48Z</time>
      </trkpt>
      <trkpt lat="45.06947" lon="6.21111">
        <ele>2208</ele>
        <time>2017-11-02T23:53:50Z</time>
      </trkpt>
      <trkpt lat="45.06954" lon="6.21103">
        <ele>2208</ele>
        <time>2017-11-02T23:54:04Z</time>
      </trkpt>
      <trkpt lat="45.06973" lon="6.21055">
        <ele>2212</ele>
        <time>2017-11-02T23:54:22Z</time>
      </trkpt>
      <trkpt lat="45.07005" lon="6.2101">
        <ele>2212</ele>
        <time>2017-11-02T23:54:37Z</time>
      </trkpt>
      <trkpt lat="45.07027" lon="6.20963">
        <ele>2213</ele>
        <time>2017-11-02T23:54:55Z</time>
      </trkpt>
      <trkpt lat="45.07036" lon="6.20933">
        <ele>2213</ele>
        <time>2017-11-02T23:55:04Z</time>
      </trkpt>
      <trkpt lat="45.07042" lon="6.20913">
        <ele>2215</ele>
        <time>2017-11-02T23:55:18Z</time>
      </trkpt>
      <trkpt lat="45.07053" lon="6.20872">
        <ele>2216</ele>
        <time>2017-11-02T23:55:37Z</time>
      </trkpt>
      <trkpt lat="45.07059" lon="6.2086">
        <ele>2216</ele>
        <time>2017-11-02T23:55:52Z</time>
      </trkpt>
      <trkpt lat="45.07064" lon="6.20843">
        <ele>2216</ele>
        <time>2017-11-02T23:56:11Z</time>
      </trkpt>
      <trkpt lat="45.07074" lon="6.2081">
        <ele>2218</ele>
        <time>2017-11-02T23:56:24Z</time>
      </trkpt>
      <trkpt lat="45.07078" lon="6.20778">
        <ele>2218</ele>
        <time>2017-11-02T23:56:41Z</time>
      </trkpt>
      <trkpt lat="45.07084" lon="6.20719">
        <ele>2218</ele>
        <time>2017-11-02T23:56:55Z</time>
      </trkpt>
      <trkpt lat="45.07085" lon="6.20695">
        <ele>2220</ele>
        <time>2017-11-02T23:57:12Z</time>
      </trkpt>
      <trkpt lat="45.07095" lon="6.2066">
        <ele>2229</ele>
        <time>2017-11-02T23:57:28Z</time>
      </trkpt>
      <trkpt lat="45.07108" lon="6.20633">
        <ele>2233</ele>
        <time>2017-11-02T23:57:39Z</time>
      </trkpt>
      <trkpt lat="45.07125" lon="6.20619">
        <ele>2233</ele>
        <time>2017-11-02T23:57:45Z</time>
      </trkpt>
      <trkpt lat="45.07148" lon="6.20598">
        <ele>2235</ele>
        <time>2017-11-02T23:57:53Z</time>
      </trkpt>
      <trkpt lat="45.07163" lon="6.2059">
        <ele>2237</ele>
        <time>2017-11-02T23:58:01Z</time>
      </trkpt>
      <trkpt lat="45.07185" lon="6.20584">
        <ele>2233</ele>
        <time>2017-11-02T23:58:08Z</time>
      </trkpt>
      <trkpt lat="45.0721" lon="6.20582">
        <ele>2240</ele>
        <time>2017-11-02T23:58:18Z</time>
      </trkpt>
      <trkpt lat="45.07243" lon="6.20571">
        <ele>2239</ele>
        <time>2017-11-02T23:58:22Z</time>
      </trkpt>
      <trkpt lat="45.07311" lon="6.20554">
        <ele>2242</ele>
        <time>2017-11-02T23:58:38Z</time>
      </trkpt>
      <trkpt lat="45.07329" lon="6.20549">
        <ele>2243</ele>
        <time>2017-11-02T23:58:51Z</time>
      </trkpt>
      <trkpt lat="45.07346" lon="6.20541">
        <ele>2249</ele>
        <time>2017-11-02T23:59:03Z</time>
      </trkpt>
      <trkpt lat="45.07366" lon="6.20535">
        <ele>2250</ele>
        <time>2017-11-02T23:59:07Z</time>
      </trkpt>
      <trkpt lat="45.07357" lon="6.20511">
        <ele>2251</ele>
        <time>2017-11-02T23:59:23Z</time>
      </trkpt>
      <trkpt lat="45.0735" lon="6.20477">
        <ele>2250</ele>
        <time>2017-11-02T23:59:29Z</time>
      </trkpt>
      <trkpt lat="45.07342" lon="6.20446">
        <ele>2247</ele>
        <time>2017-11-02T23:59:43Z</time>
      </trkpt>
      <trkpt lat="45.07332" lon="6.20388">
        <ele>2237</ele>
        <time>2017-11-02T23:59:51Z</time>
      </trkpt>
      <trkpt lat="45.07332" lon="6.20363">
        <ele>2235</ele>
        <time>2017-11-03T00:00:07Z</time>
      </trkpt>
      <trkpt lat="45.07339" lon="6.2034">
        <ele>2234</ele>
        <time>2017-11-03T00:00:15Z</time>
      </trkpt>
      <trkpt lat="45.0735" lon="6.20313">
        <ele>2224</ele>
        <time>2017-11-03T00:00:27Z</time>
      </trkpt>
      <trkpt lat="45.07373" lon="6.20283">
        <ele>2219</ele>
        <time>2017-11-03T00:00:34Z</time>
      </trkpt>
      <trkpt lat="45.07389" lon="6.20263">
        <ele>2216</ele>
        <time>2017-11-03T00:00:48Z</time>
      </trkpt>
      <trkpt lat="45.07406" lon="6.2025">
        <ele>2202</ele>
        <time>2017-11-03T00:01:07Z</time>
      </trkpt>
      <trkpt lat="45.07428" lon="6.20244">
        <ele>2197</ele>
        <time>2017-11-03T00:01:25Z</time>
      </trkpt>
      <trkpt lat="45.07445" lon="6.20248">
        <ele>2191</ele>
        <time>2017-11-03T00:01:38Z</time>
      </trkpt>
      <trkpt lat="45.07453" lon="6.20246">
        <ele>2189</ele>
        <time>2017-11-03T00:01:51Z</time>
      </trkpt>
      <trkpt lat="45.07457" lon="6.2025">
        <ele>2188</ele>
        <time>2017-11-03T00:02:07Z</time>
      </trkpt>
      <trkpt lat="45.07474" lon="6.20252">
        <ele>2203</ele>
        <time>2017-11-03T00:02:17Z</time>
      </trkpt>
      <trkpt lat="45.07464" lon="6.20236">
        <ele>2186</ele>
        <time>2017-11-03T00:02:19Z</time>
      </trkpt>
      <trkpt lat="45.07461" lon="6.20229">
        <ele>2185</ele>
        <time>2017-11-03T00:02:32Z</time>
      </trkpt>
      <trkpt lat="45.07464" lon="6.20228">
        <ele>2185</ele>
        <time>2017-11-03T00:02:45Z</time>
      </trkpt>
      <trkpt lat="45.0747" lon="6.20232">
        <ele>2185</ele>
        <time>2017-11-03T00:02:58Z</time>
      </trkpt>
      <trkpt lat="45.07482" lon="6.20231">
        <ele>2184</ele>
        <time>2017-11-03T00:03:18Z</time>
      </trkpt>
      <trkpt lat="45.07502" lon="6.20237">
        <ele>2177</ele>
        <time>2017-11-03T00:03:35Z</time>
      </trkpt>
      <trkpt lat="45.07518" lon="6.20246">
        <ele>2173</ele>
        <time>2017-11-03T00:03:53Z</time>
      </trkpt>
      <trkpt lat="45.07545" lon="6.20258">
        <ele>2181</ele>
        <time>2017-11-03T00:03:57Z</time>
      </trkpt>
      <trkpt lat="45.07554" lon="6.20265">
        <ele>2179</ele>
        <time>2017-11-03T00:04:04Z</time>
      </trkpt>
      <trkpt lat="45.07566" lon="6.20267">
        <ele>2175</ele>
        <time>2017-11-03T00:04:23Z</time>
      </trkpt>
      <trkpt lat="45.07567" lon="6.20262">
        <ele>2173</ele>
        <time>2017-11-03T00:04:39Z</time>
      </trkpt>
      <trkpt lat="45.07556" lon="6.20253">
        <ele>2176</ele>
        <time>2017-11-03T00:04:47Z</time>
      </trkpt>
      <trkpt lat="45.07554" lon="6.20246">
        <ele>2161</ele>
        <time>2017-11-03T00:04:59Z</time>
      </trkpt>
      <trkpt lat="45.07561" lon="6.20247">
        <ele>2160</ele>
        <time>2017-11-03T00:05:13Z</time>
      </trkpt>
      <trkpt lat="45.07554" lon="6.20224">
        <ele>2159</ele>
        <time>2017-11-03T00:05:33Z</time>
      </trkpt>
      <trkpt lat="45.07545" lon="6.20203">
        <ele>2157</ele>
        <time>2017-11-03T00:05:41Z</time>
      </trkpt>
      <trkpt lat="45.07536" lon="6.2019">
        <ele>2156</ele>
        <time>2017-11-03T00:05:46Z</time>
      </trkpt>
      <trkpt lat="45.07524" lon="6.20174">
        <ele>2157</ele>
        <time>2017-11-03T00:05:49Z</time>
      </trkpt>
      <trkpt lat="45.07516" lon="6.20158">
        <ele>2143</ele>
        <time>2017-11-03T00:06:04Z</time>
      </trkpt>
      <trkpt lat="45.07508" lon="6.20152">
        <ele>2144</ele>
        <time>2017-11-03T00:06:15Z</time>
      </trkpt>
      <trkpt lat="45.07502" lon="6.20146">
        <ele>2142</ele>
        <time>2017-11-03T00:06:25Z</time>
      </trkpt>
      <trkpt lat="45.07495" lon="6.20133">
        <ele>2148</ele>
        <time>2017-11-03T00:06:32Z</time>
      </trkpt>
      <trkpt lat="45.07481" lon="6.20115">
        <ele>2145</ele>
        <time>2017-11-03T00:06:45Z</time>
      </trkpt>
      <trkpt lat="45.07476" lon="6.20107">
        <ele>2143</ele>
        <time>2017-11-03T00:06:56Z</time>
      </trkpt>
      <trkpt lat="45.07477" lon="6.20102">
        <ele>2142</ele>
        <time>2017-11-03T00:07:04Z</time>
      </trkpt>
      <trkpt lat="45.07481" lon="6.20096">
        <ele>2140</ele>
        <time>2017-11-03T00:07:22Z</time>
      </trkpt>
      <trkpt lat="45.07495" lon="6.2009">
        <ele>2134</ele>
        <time>2017-11-03T00:07:37Z</time>
      </trkpt>
      <trkpt lat="45.07509" lon="6.20094">
        <ele>2129</ele>
        <time>2017-11-03T00:07:40Z</time>
      </trkpt>
      <trkpt lat="45.07513" lon="6.20094">
        <ele>2129</ele>
        <time>2017-11-03T00:07:59Z</time>
      </trkpt>
      <trkpt lat="45.07515" lon="6.20091">
        <ele>2129</ele>
        <time>2017-11-03T00:08:13Z</time>
      </trkpt>
      <trkpt lat="45.07514" lon="6.2008">
        <ele>2117</ele>
        <time>2017-11-03T00:08:27Z</time>
      </trkpt>
      <trkpt lat="45.07542" lon="6.20087">
        <ele>2126</ele>
        <time>2017-11-03T00:08:38Z</time>
      </trkpt>
      <trkpt lat="45.07554" lon="6.20094">
        <ele>2124</ele>
        <time>2017-11-03T00:08:51Z</time>
      </trkpt>
      <trkpt lat="45.07561" lon="6.20092">
        <ele>2121</ele>
        <time>2017-11-03T00:08:56Z</time>
      </trkpt>
      <trkpt lat="45.07567" lon="6.20096">
        <ele>2120</ele>
        <time>2017-11-03T00:09:10Z</time>
      </trkpt>
      <trkpt lat="45.07572" lon="6.201">
        <ele>2120</ele>
        <time>2017-11-03T00:09:23Z</time>
      </trkpt>
      <trkpt lat="45.07574" lon="6.20083">
        <ele>2106</ele>
        <time>2017-11-03T00:09:38Z</time>
      </trkpt>
      <trkpt lat="45.07571" lon="6.20074">
        <ele>2105</ele>
        <time>2017-11-03T00:09:43Z</time>
      </trkpt>
      <trkpt lat="45.07579" lon="6.2008">
        <ele>2106</ele>
        <time>2017-11-03T00:09:55Z</time>
      </trkpt>
      <trkpt lat="45.07587" lon="6.20087">
        <ele>2105</ele>
        <time>2017-11-03T00:10:04Z</time>
      </trkpt>
      <trkpt lat="45.07596" lon="6.201">
        <ele>2102</ele>
        <time>2017-11-03T00:10:12Z</time>
      </trkpt>
      <trkpt lat="45.07604" lon="6.20109">
        <ele>2101</ele>
        <time>2017-11-03T00:10:20Z</time>
      </trkpt>
      <trkpt lat="45.07606" lon="6.20108">
        <ele>2100</ele>
        <time>2017-11-03T00:10:40Z</time>
      </trkpt>
      <trkpt lat="45.07605" lon="6.20098">
        <ele>2100</ele>
        <time>2017-11-03T00:10:50Z</time>
      </trkpt>
      <trkpt lat="45.07602" lon="6.20094">
        <ele>2101</ele>
        <time>2017-11-03T00:11:10Z</time>
      </trkpt>
      <trkpt lat="45.07601" lon="6.20086">
        <ele>2101</ele>
        <time>2017-11-03T00:11:27Z</time>
      </trkpt>
      <trkpt lat="45.07612" lon="6.20097">
        <ele>2098</ele>
        <time>2017-11-03T00:11:38Z</time>
      </trkpt>
      <trkpt lat="45.07623" lon="6.20105">
        <ele>2096</ele>
        <time>2017-11-03T00:11:46Z</time>
      </trkpt>
      <trkpt lat="45.07625" lon="6.20099">
        <ele>2095</ele>
        <time>2017-11-03T00:12:03Z</time>
      </trkpt>
      <trkpt lat="45.07621" lon="6.20083">
        <ele>2081</ele>
        <time>2017-11-03T00:12:15Z</time>
      </trkpt>
      <trkpt lat="45.07622" lon="6.20081">
        <ele>2081</ele>
        <time>2017-11-03T00:12:25Z</time>
      </trkpt>
      <trkpt lat="45.07626" lon="6.20083">
        <ele>2079</ele>
        <time>2017-11-03T00:12:38Z</time>
      </trkpt>
      <trkpt lat="45.07629" lon="6.2009">
        <ele>2092</ele>
        <time>2017-11-03T00:12:43Z</time>
      </trkpt>
      <trkpt lat="45.07637" lon="6.20094">
        <ele>2090</ele>
        <time>2017-11-03T00:12:56Z</time>
      </trkpt>
      <trkpt lat="45.07639" lon="6.20092">
        <ele>2088</ele>
        <time>2017-11-03T00:13:02Z</time>
      </trkpt>
      <trkpt lat="45.07625" lon="6.20061">
        <ele>2078</ele>
        <time>2017-11-03T00:13:10Z</time>
      </trkpt>
      <trkpt lat="45.07616" lon="6.20032">
        <ele>2077</ele>
        <time>2017-11-03T00:13:15Z</time>
      </trkpt>
      <trkpt lat="45.07608" lon="6.20018">
        <ele>2077</ele>
        <time>2017-11-03T00:13:26Z</time>
      </trkpt>
      <trkpt lat="45.07601" lon="6.20002">
        <ele>2078</ele>
        <time>2017-11-03T00:13:39Z</time>
      </trkpt>
      <trkpt lat="45.07596" lon="6.19983">
        <ele>2064</ele>
        <time>2017-11-03T00:13:44Z</time>
      </trkpt>
      <trkpt lat="45.07594" lon="6.19978">
        <ele>2063</ele>
        <time>2017-11-03T00:13:59Z</time>
      </trkpt>
      <trkpt lat="45.07583" lon="6.19966">
        <ele>2072</ele>
        <time>2017-11-03T00:14:13Z</time>
      </trkpt>
      <trkpt lat="45.07574" lon="6.19955">
        <ele>2069</ele>
        <time>2017-11-03T00:14:21Z</time>
      </trkpt>
      <trkpt lat="45.07566" lon="6.19932">
        <ele>2063</ele>
        <time>2017-11-03T00:14:28Z</time>
      </trkpt>
      <trkpt lat="45.07552" lon="6.19913">
        <ele>2045</ele>
        <time>2017-11-03T00:14:30Z</time>
      </trkpt>
      <trkpt lat="45.07553" lon="6.19909">
        <ele>2045</ele>
        <time>2017-11-03T00:14:32Z</time>
      </trkpt>
      <trkpt lat="45.0755" lon="6.19904">
        <ele>2044</ele>
        <time>2017-11-03T00:14:50Z</time>
      </trkpt>
      <trkpt lat="45.07542" lon="6.19892">
        <ele>2043</ele>
        <time>2017-11-03T00:15:07Z</time>
      </trkpt>
      <trkpt lat="45.07543" lon="6.19888">
        <ele>2042</ele>
        <time>2017-11-03T00:15:22Z</time>
      </trkpt>
      <trkpt lat="45.07546" lon="6.19888">
        <ele>2042</ele>
        <time>2017-11-03T00:15:37Z</time>
      </trkpt>
      <trkpt lat="45.07556" lon="6.19878">
        <ele>2040</ele>
        <time>2017-11-03T00:15:42Z</time>
      </trkpt>
      <trkpt lat="45.07555" lon="6.19872">
        <ele>2039</ele>
        <time>2017-11-03T00:15:48Z</time>
      </trkpt>
      <trkpt lat="45.07548" lon="6.19869">
        <ele>2038</ele>
        <time>2017-11-03T00:16:05Z</time>
      </trkpt>
      <trkpt lat="45.07543" lon="6.19865">
        <ele>2038</ele>
        <time>2017-11-03T00:16:13Z</time>
      </trkpt>
      <trkpt lat="45.07541" lon="6.19848">
        <ele>2035</ele>
        <time>2017-11-03T00:16:25Z</time>
      </trkpt>
      <trkpt lat="45.0754" lon="6.19833">
        <ele>2015</ele>
        <time>2017-11-03T00:16:37Z</time>
      </trkpt>
      <trkpt lat="45.07537" lon="6.19828">
        <ele>2014</ele>
        <time>2017-11-03T00:16:43Z</time>
      </trkpt>
      <trkpt lat="45.07536" lon="6.19823">
        <ele>2014</ele>
        <time>2017-11-03T00:16:56Z</time>
      </trkpt>
      <trkpt lat="45.07541" lon="6.19817">
        <ele>2013</ele>
        <time>2017-11-03T00:17:05Z</time>
      </trkpt>
      <trkpt lat="45.07547" lon="6.1981">
        <ele>2012</ele>
        <time>2017-11-03T00:17:20Z</time>
      </trkpt>
      <trkpt lat="45.07545" lon="6.19801">
        <ele>2010</ele>
        <time>2017-11-03T00:17:25Z</time>
      </trkpt>
      <trkpt lat="45.07535" lon="6.19789">
        <ele>2008</ele>
        <time>2017-11-03T00:17:33Z</time>
      </trkpt>
      <trkpt lat="45.07539" lon="6.19782">
        <ele>2007</ele>
        <time>2017-11-03T00:17:44Z</time>
      </trkpt>
      <trkpt lat="45.0754" lon="6.19778">
        <ele>2006</ele>
        <time>2017-11-03T00:17:59Z</time>
      </trkpt>
      <trkpt lat="45.0753" lon="6.19777">
        <ele>2006</ele>
        <time>2017-11-03T00:18:11Z</time>
      </trkpt>
      <trkpt lat="45.07522" lon="6.19773">
        <ele>2004</ele>
        <time>2017-11-03T00:18:25Z</time>
      </trkpt>
      <trkpt lat="45.07524" lon="6.19769">
        <ele>2004</ele>
        <time>2017-11-03T00:18:31Z</time>
      </trkpt>
      <trkpt lat="45.07528" lon="6.19767">
        <ele>2004</ele>
        <time>2017-11-03T00:18:49Z</time>
      </trkpt>
      <trkpt lat="45.07537" lon="6.19758">
        <ele>2003</ele>
        <time>2017-11-03T00:19:06Z</time>
      </trkpt>
      <trkpt lat="45.07537" lon="6.19755">
        <ele>2003</ele>
        <time>2017-11-03T00:19:11Z</time>
      </trkpt>
      <trkpt lat="45.07534" lon="6.19755">
        <ele>2003</ele>
        <time>2017-11-03T00:19:26Z</time>
      </trkpt>
      <trkpt lat="45.07531" lon="6.19752">
        <ele>2002</ele>
        <time>2017-11-03T00:19:41Z</time>
      </trkpt>
      <trkpt lat="45.07532" lon="6.19747">
        <ele>1982</ele>
        <time>2017-11-03T00:19:48Z</time>
      </trkpt>
      <trkpt lat="45.07546" lon="6.1974">
        <ele>1981</ele>
        <time>2017-11-03T00:19:59Z</time>
      </trkpt>
      <trkpt lat="45.07549" lon="6.19737">
        <ele>1981</ele>
        <time>2017-11-03T00:20:09Z</time>
      </trkpt>
      <trkpt lat="45.07554" lon="6.19736">
        <ele>1981</ele>
        <time>2017-11-03T00:20:19Z</time>
      </trkpt>
      <trkpt lat="45.07565" lon="6.19734">
        <ele>1982</ele>
        <time>2017-11-03T00:20:37Z</time>
      </trkpt>
      <trkpt lat="45.07564" lon="6.19731">
        <ele>1981</ele>
        <time>2017-11-03T00:20:48Z</time>
      </trkpt>
      <trkpt lat="45.07558" lon="6.19729">
        <ele>1980</ele>
        <time>2017-11-03T00:20:55Z</time>
      </trkpt>
      <trkpt lat="45.07554" lon="6.19724">
        <ele>1979</ele>
        <time>2017-11-03T00:20:58Z</time>
      </trkpt>
      <trkpt lat="45.07554" lon="6.1972">
        <ele>1978</ele>
        <time>2017-11-03T00:21:05Z</time>
      </trkpt>
      <trkpt lat="45.07563" lon="6.1972">
        <ele>1979</ele>
        <time>2017-11-03T00:21:16Z</time>
      </trkpt>
      <trkpt lat="45.07575" lon="6.19724">
        <ele>1980</ele>
        <time>2017-11-03T00:21:26Z</time>
      </trkpt>
      <trkpt lat="45.07592" lon="6.19727">
        <ele>1976</ele>
        <time>2017-11-03T00:21:29Z</time>
      </trkpt>
      <trkpt lat="45.07617" lon="6.19728">
        <ele>1971</ele>
        <time>2017-11-03T00:21:39Z</time>
      </trkpt>
      <trkpt lat="45.07624" lon="6.19727">
        <ele>1970</ele>
        <time>2017-11-03T00:21:43Z</time>
      </trkpt>
      <trkpt lat="45.07638" lon="6.19733">
        <ele>1969</ele>
        <time>2017-11-03T00:21:56Z</time>
      </trkpt>
      <trkpt lat="45.07657" lon="6.19738">
        <ele>1968</ele>
        <time>2017-11-03T00:22:12Z</time>
      </trkpt>
      <trkpt lat="45.07655" lon="6.19725">
        <ele>1967</ele>
        <time>2017-11-03T00:22:22Z</time>
      </trkpt>
      <trkpt lat="45.07657" lon="6.19723">
        <ele>1966</ele>
        <time>2017-11-03T00:22:41Z</time>
      </trkpt>
      <trkpt lat="45.07661" lon="6.19721">
        <ele>1966</ele>
        <time>2017-11-03T00:22:48Z</time>
      </trkpt>
      <trkpt lat="45.07656" lon="6.19706">
        <ele>1963</ele>
        <time>2017-11-03T00:22:51Z</time>
      </trkpt>
      <trkpt lat="45.07646" lon="6.19684">
        <ele>1958</ele>
        <time>2017-11-03T00:23:00Z</time>
      </trkpt>
      <trkpt lat="45.07638" lon="6.19658">
        <ele>1942</ele>
        <time>2017-11-03T00:23:09Z</time>
      </trkpt>
      <trkpt lat="45.07629" lon="6.19652">
        <ele>1942</ele>
        <time>2017-11-03T00:23:18Z</time>
      </trkpt>
      <trkpt lat="45.07633" lon="6.19648">
        <ele>1941</ele>
        <time>2017-11-03T00:23:24Z</time>
      </trkpt>
      <trkpt lat="45.07634" lon="6.19642">
        <ele>1941</ele>
        <time>2017-11-03T00:23:32Z</time>
      </trkpt>
      <trkpt lat="45.07629" lon="6.19631">
        <ele>1940</ele>
        <time>2017-11-03T00:23:47Z</time>
      </trkpt>
      <trkpt lat="45.07624" lon="6.19626">
        <ele>1939</ele>
        <time>2017-11-03T00:24:05Z</time>
      </trkpt>
      <trkpt lat="45.07621" lon="6.19618">
        <ele>1938</ele>
        <time>2017-11-03T00:24:08Z</time>
      </trkpt>
      <trkpt lat="45.07623" lon="6.19608">
        <ele>1937</ele>
        <time>2017-11-03T00:24:28Z</time>
      </trkpt>
      <trkpt lat="45.0762" lon="6.19601">
        <ele>1936</ele>
        <time>2017-11-03T00:24:45Z</time>
      </trkpt>
      <trkpt lat="45.07616" lon="6.19598">
        <ele>1936</ele>
        <time>2017-11-03T00:24:51Z</time>
      </trkpt>
      <trkpt lat="45.07614" lon="6.19593">
        <ele>1936</ele>
        <time>2017-11-03T00:25:10Z</time>
      </trkpt>
      <trkpt lat="45.07618" lon="6.19588">
        <ele>1935</ele>
        <time>2017-11-03T00:25:25Z</time>
      </trkpt>
      <trkpt lat="45.07621" lon="6.19587">
        <ele>1935</ele>
        <time>2017-11-03T00:25:27Z</time>
      </trkpt>
      <trkpt lat="45.07626" lon="6.19579">
        <ele>1918</ele>
        <time>2017-11-03T00:25:36Z</time>
      </trkpt>
      <trkpt lat="45.07634" lon="6.1958">
        <ele>1917</ele>
        <time>2017-11-03T00:25:44Z</time>
      </trkpt>
      <trkpt lat="45.07636" lon="6.19576">
        <ele>1917</ele>
        <time>2017-11-03T00:26:00Z</time>
      </trkpt>
      <trkpt lat="45.07637" lon="6.19562">
        <ele>1916</ele>
        <time>2017-11-03T00:26:17Z</time>
      </trkpt>
      <trkpt lat="45.07642" lon="6.19557">
        <ele>1915</ele>
        <time>2017-11-03T00:26:32Z</time>
      </trkpt>
      <trkpt lat="45.07646" lon="6.19557">
        <ele>1915</ele>
        <time>2017-11-03T00:26:49Z</time>
      </trkpt>
      <trkpt lat="45.07651" lon="6.19561">
        <ele>1916</ele>
        <time>2017-11-03T00:27:03Z</time>
      </trkpt>
      <trkpt lat="45.07654" lon="6.1956">
        <ele>1915</ele>
        <time>2017-11-03T00:27:23Z</time>
      </trkpt>
      <trkpt lat="45.07677" lon="6.19536">
        <ele>1902</ele>
        <time>2017-11-03T00:27:30Z</time>
      </trkpt>
      <trkpt lat="45.07691" lon="6.19517">
        <ele>1900</ele>
        <time>2017-11-03T00:27:35Z</time>
      </trkpt>
      <trkpt lat="45.07703" lon="6.19506">
        <ele>1898</ele>
        <time>2017-11-03T00:27:43Z</time>
      </trkpt>
      <trkpt lat="45.07725" lon="6.19495">
        <ele>1889</ele>
        <time>2017-11-03T00:27:47Z</time>
      </trkpt>
      <trkpt lat="45.0773" lon="6.19488">
        <ele>1888</ele>
        <time>2017-11-03T00:27:53Z</time>
      </trkpt>
      <trkpt lat="45.07734" lon="6.19494">
        <ele>1888</ele>
        <time>2017-11-03T00:28:12Z</time>
      </trkpt>
      <trkpt lat="45.07739" lon="6.19475">
        <ele>1888</ele>
        <time>2017-11-03T00:28:18Z</time>
      </trkpt>
      <trkpt lat="45.07743" lon="6.19468">
        <ele>1888</ele>
        <time>2017-11-03T00:28:34Z</time>
      </trkpt>
      <trkpt lat="45.07749" lon="6.1948">
        <ele>1887</ele>
        <time>2017-11-03T00:28:39Z</time>
      </trkpt>
      <trkpt lat="45.07751" lon="6.19506">
        <ele>1879</ele>
        <time>2017-11-03T00:28:56Z</time>
      </trkpt>
      <trkpt lat="45.07754" lon="6.19508">
        <ele>1877</ele>
        <time>2017-11-03T00:29:12Z</time>
      </trkpt>
      <trkpt lat="45.07755" lon="6.19504">
        <ele>1878</ele>
        <time>2017-11-03T00:29:25Z</time>
      </trkpt>
      <trkpt lat="45.0776" lon="6.19487">
        <ele>1869</ele>
        <time>2017-11-03T00:29:33Z</time>
      </trkpt>
      <trkpt lat="45.07763" lon="6.1951">
        <ele>1872</ele>
        <time>2017-11-03T00:29:42Z</time>
      </trkpt>
      <trkpt lat="45.07764" lon="6.19512">
        <ele>1871</ele>
        <time>2017-11-03T00:29:54Z</time>
      </trkpt>
      <trkpt lat="45.07765" lon="6.19507">
        <ele>1871</ele>
        <time>2017-11-03T00:30:09Z</time>
      </trkpt>
      <trkpt lat="45.07768" lon="6.19495">
        <ele>1867</ele>
        <time>2017-11-03T00:30:24Z</time>
      </trkpt>
      <trkpt lat="45.07771" lon="6.19508">
        <ele>1868</ele>
        <time>2017-11-03T00:30:43Z</time>
      </trkpt>
      <trkpt lat="45.07772" lon="6.19511">
        <ele>1867</ele>
        <time>2017-11-03T00:31:03Z</time>
      </trkpt>
      <trkpt lat="45.07774" lon="6.19508">
        <ele>1866</ele>
        <time>2017-11-03T00:31:21Z</time>
      </trkpt>
      <trkpt lat="45.07777" lon="6.19481">
        <ele>1860</ele>
        <time>2017-11-03T00:31:33Z</time>
      </trkpt>
      <trkpt lat="45.07781" lon="6.19471">
        <ele>1857</ele>
        <time>2017-11-03T00:31:36Z</time>
      </trkpt>
      <trkpt lat="45.07784" lon="6.19489">
        <ele>1857</ele>
        <time>2017-11-03T00:31:50Z</time>
      </trkpt>
      <trkpt lat="45.07789" lon="6.19522">
        <ele>1859</ele>
        <time>2017-11-03T00:31:59Z</time>
      </trkpt>
      <trkpt lat="45.07788" lon="6.1953">
        <ele>1860</ele>
        <time>2017-11-03T00:32:09Z</time>
      </trkpt>
      <trkpt lat="45.0779" lon="6.19534">
        <ele>1859</ele>
        <time>2017-11-03T00:32:27Z</time>
      </trkpt>
      <trkpt lat="45.07793" lon="6.19532">
        <ele>1858</ele>
        <time>2017-11-03T00:32:45Z</time>
      </trkpt>
      <trkpt lat="45.07796" lon="6.19524">
        <ele>1856</ele>
        <time>2017-11-03T00:32:52Z</time>
      </trkpt>
      <trkpt lat="45.07801" lon="6.19511">
        <ele>1853</ele>
        <time>2017-11-03T00:33:03Z</time>
      </trkpt>
      <trkpt lat="45.07803" lon="6.1951">
        <ele>1852</ele>
        <time>2017-11-03T00:33:11Z</time>
      </trkpt>
      <trkpt lat="45.07805" lon="6.19515">
        <ele>1851</ele>
        <time>2017-11-03T00:33:22Z</time>
      </trkpt>
      <trkpt lat="45.07806" lon="6.19543">
        <ele>1854</ele>
        <time>2017-11-03T00:33:41Z</time>
      </trkpt>
      <trkpt lat="45.07808" lon="6.19548">
        <ele>1853</ele>
        <time>2017-11-03T00:33:52Z</time>
      </trkpt>
      <trkpt lat="45.07818" lon="6.19559">
        <ele>1850</ele>
        <time>2017-11-03T00:34:08Z</time>
      </trkpt>
      <trkpt lat="45.07823" lon="6.19564">
        <ele>1847</ele>
        <time>2017-11-03T00:34:27Z</time>
      </trkpt>
      <trkpt lat="45.07827" lon="6.19574">
        <ele>1842</ele>
        <time>2017-11-03T00:34:39Z</time>
      </trkpt>
      <trkpt lat="45.07829" lon="6.19582">
        <ele>1837</ele>
        <time>2017-11-03T00:34:55Z</time>
      </trkpt>
      <trkpt lat="45.07835" lon="6.19586">
        <ele>1831</ele>
        <time>2017-11-03T00:35:02Z</time>
      </trkpt>
      <trkpt lat="45.07837" lon="6.19583">
        <ele>1829</ele>
        <time>2017-11-03T00:35:10Z</time>
      </trkpt>
      <trkpt lat="45.07839" lon="6.19584">
        <ele>1829</ele>
        <time>2017-11-03T00:35:23Z</time>
      </trkpt>
      <trkpt lat="45.07845" lon="6.19602">
        <ele>1823</ele>
        <time>2017-11-03T00:35:27Z</time>
      </trkpt>
      <trkpt lat="45.07851" lon="6.19615">
        <ele>1821</ele>
        <time>2017-11-03T00:35:37Z</time>
      </trkpt>
      <trkpt lat="45.07854" lon="6.1961">
        <ele>1821</ele>
        <time>2017-11-03T00:35:57Z</time>
      </trkpt>
      <trkpt lat="45.07854" lon="6.19603">
        <ele>1821</ele>
        <time>2017-11-03T00:36:00Z</time>
      </trkpt>
      <trkpt lat="45.07853" lon="6.19597">
        <ele>1821</ele>
        <time>2017-11-03T00:36:11Z</time>
      </trkpt>
      <trkpt lat="45.07855" lon="6.19595">
        <ele>1821</ele>
        <time>2017-11-03T00:36:14Z</time>
      </trkpt>
      <trkpt lat="45.07858" lon="6.196">
        <ele>1819</ele>
        <time>2017-11-03T00:36:18Z</time>
      </trkpt>
      <trkpt lat="45.07866" lon="6.19616">
        <ele>1817</ele>
        <time>2017-11-03T00:36:20Z</time>
      </trkpt>
      <trkpt lat="45.07874" lon="6.19618">
        <ele>1815</ele>
        <time>2017-11-03T00:36:36Z</time>
      </trkpt>
      <trkpt lat="45.07878" lon="6.19618">
        <ele>1814</ele>
        <time>2017-11-03T00:36:56Z</time>
      </trkpt>
      <trkpt lat="45.07883" lon="6.19624">
        <ele>1813</ele>
        <time>2017-11-03T00:37:15Z</time>
      </trkpt>
      <trkpt lat="45.07887" lon="6.19627">
        <ele>1812</ele>
        <time>2017-11-03T00:37:17Z</time>
      </trkpt>
      <trkpt lat="45.07885" lon="6.19611">
        <ele>1810</ele>
        <time>2017-11-03T00:37:20Z</time>
      </trkpt>
      <trkpt lat="45.07883" lon="6.19593">
        <ele>1809</ele>
        <time>2017-11-03T00:37:32Z</time>
      </trkpt>
      <trkpt lat="45.0789" lon="6.19599">
        <ele>1806</ele>
        <time>2017-11-03T00:37:37Z</time>
      </trkpt>
      <trkpt lat="45.07892" lon="6.19595">
        <ele>1804</ele>
        <time>2017-11-03T00:37:55Z</time>
      </trkpt>
      <trkpt lat="45.0789" lon="6.19583">
        <ele>1795</ele>
        <time>2017-11-03T00:38:15Z</time>
      </trkpt>
      <trkpt lat="45.07886" lon="6.19551">
        <ele>1797</ele>
        <time>2017-11-03T00:38:29Z</time>
      </trkpt>
      <trkpt lat="45.07879" lon="6.19541">
        <ele>1799</ele>
        <time>2017-11-03T00:38:46Z</time>
      </trkpt>
      <trkpt lat="45.0788" lon="6.19528">
        <ele>1798</ele>
        <time>2017-11-03T00:39:02Z</time>
      </trkpt>
      <trkpt lat="45.07887" lon="6.19513">
        <ele>1793</ele>
        <time>2017-11-03T00:39:12Z</time>
      </trkpt>
      <trkpt lat="45.07892" lon="6.19479">
        <ele>1785</ele>
        <time>2017-11-03T00:39:26Z</time>
      </trkpt>
      <trkpt lat="45.07892" lon="6.19439">
        <ele>1783</ele>
        <time>2017-11-03T00:39:45Z</time>
      </trkpt>
      <trkpt lat="45.07892" lon="6.19435">
        <ele>1782</ele>
        <time>2017-11-03T00:39:52Z</time>
      </trkpt>
      <trkpt lat="45.07896" lon="6.19439">
        <ele>1781</ele>
        <time>2017-11-03T00:39:57Z</time>
      </trkpt>
      <trkpt lat="45.07898" lon="6.1941">
        <ele>1772</ele>
        <time>2017-11-03T00:40:03Z</time>
      </trkpt>
      <trkpt lat="45.079" lon="6.1935">
        <ele>1770</ele>
        <time>2017-11-03T00:40:20Z</time>
      </trkpt>
      <trkpt lat="45.07904" lon="6.19325">
        <ele>1761</ele>
        <time>2017-11-03T00:40:26Z</time>
      </trkpt>
      <trkpt lat="45.07906" lon="6.1925">
        <ele>1747</ele>
        <time>2017-11-03T00:40:37Z</time>
      </trkpt>
      <trkpt lat="45.07906" lon="6.19233">
        <ele>1753</ele>
        <time>2017-11-03T00:40:53Z</time>
      </trkpt>
      <trkpt lat="45.07909" lon="6.1922">
        <ele>1756</ele>
        <time>2017-11-03T00:40:55Z</time>
      </trkpt>
      <trkpt lat="45.07912" lon="6.19188">
        <ele>1753</ele>
        <time>2017-11-03T00:41:10Z</time>
      </trkpt>
      <trkpt lat="45.07922" lon="6.19138">
        <ele>1715</ele>
        <time>2017-11-03T00:41:20Z</time>
      </trkpt>
      <trkpt lat="45.07924" lon="6.19142">
        <ele>1715</ele>
        <time>2017-11-03T00:41:36Z</time>
      </trkpt>
      <trkpt lat="45.07927" lon="6.19139">
        <ele>1714</ele>
        <time>2017-11-03T00:41:42Z</time>
      </trkpt>
      <trkpt lat="45.07928" lon="6.19129">
        <ele>1712</ele>
        <time>2017-11-03T00:41:50Z</time>
      </trkpt>
      <trkpt lat="45.07933" lon="6.19085">
        <ele>1715</ele>
        <time>2017-11-03T00:42:03Z</time>
      </trkpt>
      <trkpt lat="45.07936" lon="6.19068">
        <ele>1708</ele>
        <time>2017-11-03T00:42:05Z</time>
      </trkpt>
      <trkpt lat="45.07935" lon="6.19051">
        <ele>1704</ele>
        <time>2017-11-03T00:42:20Z</time>
      </trkpt>
      <trkpt lat="45.07941" lon="6.19009">
        <ele>1703</ele>
        <time>2017-11-03T00:42:33Z</time>
      </trkpt>
      <trkpt lat="45.07946" lon="6.18983">
        <ele>1694</ele>
        <time>2017-11-03T00:42:41Z</time>
      </trkpt>
      <trkpt lat="45.07941" lon="6.18961">
        <ele>1693</ele>
        <time>2017-11-03T00:42:48Z</time>
      </trkpt>
      <trkpt lat="45.07945" lon="6.1892">
        <ele>1693</ele>
        <time>2017-11-03T00:42:55Z</time>
      </trkpt>
      <trkpt lat="45.07945" lon="6.18883">
        <ele>1686</ele>
        <time>2017-11-03T00:43:08Z</time>
      </trkpt>
      <trkpt lat="45.07945" lon="6.1882">
        <ele>1684</ele>
        <time>2017-11-03T00:43:27Z</time>
      </trkpt>
      <trkpt lat="45.07949" lon="6.18801">
        <ele>1681</ele>
        <time>2017-11-03T00:43:29Z</time>
      </trkpt>
      <trkpt lat="45.07948" lon="6.18785">
        <ele>1681</ele>
        <time>2017-11-03T00:43:38Z</time>
      </trkpt>
      <trkpt lat="45.07957" lon="6.1875">
        <ele>1677</ele>
        <time>2017-11-03T00:43:55Z</time>
      </trkpt>
      <trkpt lat="45.0796" lon="6.1872">
        <ele>1675</ele>
        <time>2017-11-03T00:43:59Z</time>
      </trkpt>
      <trkpt lat="45.07967" lon="6.1866">
        <ele>1666</ele>
        <time>2017-11-03T00:44:19Z</time>
      </trkpt>
      <trkpt lat="45.07969" lon="6.1862">
        <ele>1664</ele>
        <time>2017-11-03T00:44:27Z</time>
      </trkpt>
      <trkpt lat="45.07966" lon="6.18545">
        <ele>1651</ele>
        <time>2017-11-03T00:44:33Z</time>
      </trkpt>
      <trkpt lat="45.07963" lon="6.18505">
        <ele>1647</ele>
        <time>2017-11-03T00:44:42Z</time>
      </trkpt>
      <trkpt lat="45.07956" lon="6.18467">
        <ele>1634</ele>
        <time>2017-11-03T00:44:56Z</time>
      </trkpt>
      <trkpt lat="45.07948" lon="6.18431">
        <ele>1632</ele>
        <time>2017-11-03T00:45:03Z</time>
      </trkpt>
      <trkpt lat="45.07947" lon="6.18406">
        <ele>1617</ele>
        <time>2017-11-03T00:45:05Z</time>
      </trkpt>
      <trkpt lat="45.07941" lon="6.18386">
        <ele>1615</ele>
        <time>2017-11-03T00:45:08Z</time>
      </trkpt>
      <trkpt lat="45.07938" lon="6.18357">
        <ele>1610</ele>
        <time>2017-11-03T00:45:10Z</time>
      </trkpt>
      <trkpt lat="45.0794" lon="6.18354">
        <ele>1610</ele>
        <time>2017-11-03T00:45:17Z</time>
      </trkpt>
      <trkpt lat="45.07942" lon="6.18354">
        <ele>1610</ele>
        <time>2017-11-03T00:45:25Z</time>
      </trkpt>
      <trkpt lat="45.07947" lon="6.1836">
        <ele>1609</ele>
        <time>2017-11-03T00:45:40Z</time>
      </trkpt>
      <trkpt lat="45.07956" lon="6.18362">
        <ele>1608</ele>
        <time>2017-11-03T00:46:00Z</time>
      </trkpt>
      <trkpt lat="45.07957" lon="6.18359">
        <ele>1607</ele>
        <time>2017-11-03T00:46:08Z</time>
      </trkpt>
      <trkpt lat="45.07954" lon="6.1835">
        <ele>1607</ele>
        <time>2017-11-03T00:46:16Z</time>
      </trkpt>
      <trkpt lat="45.07959" lon="6.18347">
        <ele>1606</ele>
        <time>2017-11-03T00:46:31Z</time>
      </trkpt>
      <trkpt lat="45.07972" lon="6.18352">
        <ele>1603</ele>
        <time>2017-11-03T00:46:50Z</time>
      </trkpt>
      <trkpt lat="45.07974" lon="6.18348">
        <ele>1601</ele>
        <time>2017-11-03T00:46:55Z</time>
      </trkpt>
      <trkpt lat="45.07971" lon="6.18345">
        <ele>1602</ele>
        <time>2017-11-03T00:47:05Z</time>
      </trkpt>
      <trkpt lat="45.07963" lon="6.18336">
        <ele>1604</ele>
        <time>2017-11-03T00:47:25Z</time>
      </trkpt>
      <trkpt lat="45.07956" lon="6.18328">
        <ele>1595</ele>
        <time>2017-11-03T00:47:38Z</time>
      </trkpt>
      <trkpt lat="45.07954" lon="6.18322">
        <ele>1595</ele>
        <time>2017-11-03T00:47:52Z</time>
      </trkpt>
      <trkpt lat="45.07954" lon="6.1828">
        <ele>1592</ele>
        <time>2017-11-03T00:47:56Z</time>
      </trkpt>
      <trkpt lat="45.07944" lon="6.18252">
        <ele>1591</ele>
        <time>2017-11-03T00:48:13Z</time>
      </trkpt>
      <trkpt lat="45.0793" lon="6.18214">
        <ele>1585</ele>
        <time>2017-11-03T00:48:28Z</time>
      </trkpt>
      <trkpt lat="45.07922" lon="6.18186">
        <ele>1580</ele>
        <time>2017-11-03T00:48:41Z</time>
      </trkpt>
      <trkpt lat="45.07899" lon="6.18159">
        <ele>1575</ele>
        <time>2017-11-03T00:48:45Z</time>
      </trkpt>
      <trkpt lat="45.07886" lon="6.18145">
        <ele>1575</ele>
        <time>2017-11-03T00:48:59Z</time>
      </trkpt>
      <trkpt lat="45.07885" lon="6.18146">
        <ele>1575</ele>
        <time>2017-11-03T00:49:14Z</time>
      </trkpt>
      <trkpt lat="45.07875" lon="6.18142">
        <ele>1576</ele>
        <time>2017-11-03T00:49:28Z</time>
      </trkpt>
    </trkseg>
  </trk>
</gpx>